2016 Cux-Wetter.de -Die Nutzung der Wetterdaten nur mit ausdrcklicher Genehmigung
Wetterdaten: Mittwoch, 04.01.2017
Datum Zeit Temp. A. Feuchte A. Luftdruck Regen Wind Richtung Richtung Sonnenschein Solar Taupunkt Windchill Windben Empfang
04.01.2017 00:00 7,3 C 91 % 1003,1 hPa 0,0 l/m 20,2 km/h (4 Bft) W-NW 290 0 min 0 W/m 5,9 C -0,3 C 33,8 km/h (5 Bft) 100,00 %
04.01.2017 00:03 7,3 C 91 % 1003,4 hPa 0,0 l/m 18,4 km/h (3 Bft) W-NW 302 0 min 0 W/m 5,9 C 0,4 C 46,7 km/h (6 Bft) 100,00 %
04.01.2017 00:06 7,2 C 90 % 1003,6 hPa 0,0 l/m 28,5 km/h (5 Bft) N 360 0 min 0 W/m 5,7 C -2,9 C 41,8 km/h (6 Bft) 100,00 %
04.01.2017 00:09 6,9 C 90 % 1003,5 hPa 0,0 l/m 28,0 km/h (5 Bft) W-NW 283 0 min 0 W/m 5,4 C -3,2 C 46,7 km/h (6 Bft) 100,00 %
04.01.2017 00:12 6,7 C 90 % 1003,3 hPa 0,0 l/m 20,3 km/h (4 Bft) NW 314 0 min 0 W/m 5,2 C -1,1 C 32,2 km/h (5 Bft) 100,00 %
04.01.2017 00:15 6,5 C 91 % 1003,3 hPa 0,0 l/m 18,2 km/h (3 Bft) W-NW 286 0 min 0 W/m 5,1 C -0,5 C 35,4 km/h (5 Bft) 98,70 %
04.01.2017 00:18 6,4 C 91 % 1003,3 hPa 0,0 l/m 18,7 km/h (3 Bft) NW 313 0 min 0 W/m 5,0 C -0,9 C 33,8 km/h (5 Bft) 98,39 %
04.01.2017 00:21 6,3 C 92 % 1003,4 hPa 0,2 l/m 13,8 km/h (3 Bft) W-NW 293 0 min 0 W/m 5,1 C 1,3 C 35,4 km/h (5 Bft) 95,89 %
04.01.2017 00:24 6,2 C 92 % 1003,4 hPa 0,0 l/m 15,6 km/h (3 Bft) N-NW 339 0 min 0 W/m 5,0 C 0,2 C 29,0 km/h (5 Bft) 98,70 %
04.01.2017 00:27 6,2 C 92 % 1003,4 hPa 0,0 l/m 11,8 km/h (2 Bft) W 263 0 min 0 W/m 5,0 C 2,3 C 27,4 km/h (5 Bft) 95,71 %
04.01.2017 00:30 6,1 C 93 % 1003,4 hPa 0,0 l/m 14,4 km/h (3 Bft) N-NW 334 0 min 0 W/m 5,1 C 0,7 C 29,0 km/h (5 Bft) 97,06 %
04.01.2017 00:33 6,1 C 93 % 1003,4 hPa 0,0 l/m 15,0 km/h (3 Bft) W 267 0 min 0 W/m 5,1 C 0,4 C 35,4 km/h (5 Bft) 100,00 %
04.01.2017 00:36 6,1 C 93 % 1003,4 hPa 0,0 l/m 12,3 km/h (2 Bft) W 277 0 min 0 W/m 5,1 C 1,8 C 25,7 km/h (4 Bft) 100,00 %
04.01.2017 00:39 6,1 C 93 % 1003,4 hPa 0,0 l/m 15,1 km/h (3 Bft) NW 312 0 min 0 W/m 5,1 C 0,4 C 29,0 km/h (5 Bft) 100,00 %
04.01.2017 00:42 6,1 C 93 % 1003,2 hPa 0,0 l/m 13,9 km/h (3 Bft) NW 312 0 min 0 W/m 5,1 C 1,0 C 27,4 km/h (5 Bft) 100,00 %
04.01.2017 00:45 6,1 C 93 % 1003,3 hPa 0,0 l/m 12,9 km/h (3 Bft) W 264 0 min 0 W/m 5,1 C 1,5 C 32,2 km/h (5 Bft) 100,00 %
04.01.2017 00:48 6,1 C 93 % 1003,2 hPa 0,0 l/m 20,8 km/h (4 Bft) W 267 0 min 0 W/m 5,1 C -2,0 C 35,4 km/h (5 Bft) 100,00 %
04.01.2017 00:51 6,1 C 93 % 1003,1 hPa 0,0 l/m 19,2 km/h (3 Bft) W-NW 288 0 min 0 W/m 5,1 C -1,4 C 33,8 km/h (5 Bft) 100,00 %
04.01.2017 00:54 6,1 C 93 % 1003,1 hPa 0,0 l/m 19,7 km/h (3 Bft) W-NW 286 0 min 0 W/m 5,1 C -1,6 C 35,4 km/h (5 Bft) 98,36 %
04.01.2017 00:57 6,1 C 93 % 1003,1 hPa 0,2 l/m 17,6 km/h (3 Bft) W 265 0 min 0 W/m 5,1 C -0,8 C 30,6 km/h (5 Bft) 100,00 %
04.01.2017 01:00 6,1 C 92 % 1002,9 hPa 0,0 l/m 17,0 km/h (3 Bft) W-NW 284 0 min 0 W/m 4,9 C -0,5 C 33,8 km/h (5 Bft) 100,00 %
04.01.2017 01:03 6,1 C 92 % 1002,9 hPa 0,0 l/m 14,8 km/h (3 Bft) W 260 0 min 0 W/m 4,9 C 0,5 C 29,0 km/h (5 Bft) 100,00 %
04.01.2017 01:06 6,2 C 92 % 1002,9 hPa 0,0 l/m 16,6 km/h (3 Bft) NW 304 0 min 0 W/m 5,0 C -0,2 C 35,4 km/h (5 Bft) 98,59 %
04.01.2017 01:09 6,2 C 92 % 1003,0 hPa 0,0 l/m 19,2 km/h (3 Bft) W-NW 294 0 min 0 W/m 5,0 C -1,3 C 33,8 km/h (5 Bft) 98,68 %
04.01.2017 01:12 6,2 C 92 % 1003,0 hPa 0,0 l/m 15,5 km/h (3 Bft) W-NW 303 0 min 0 W/m 5,0 C 0,3 C 30,6 km/h (5 Bft) 95,59 %
04.01.2017 01:15 6,2 C 91 % 1003,1 hPa 0,0 l/m 23,6 km/h (4 Bft) N-NW 344 0 min 0 W/m 4,8 C -2,9 C 43,5 km/h (6 Bft) 96,92 %
04.01.2017 01:18 6,1 C 90 % 1002,9 hPa 0,0 l/m 19,5 km/h (3 Bft) W-NW 300 0 min 0 W/m 4,6 C -1,6 C 40,2 km/h (6 Bft) 97,56 %
04.01.2017 01:21 6,0 C 89 % 1003,0 hPa 0,0 l/m 21,8 km/h (4 Bft) W 276 0 min 0 W/m 4,3 C -2,5 C 49,9 km/h (7 Bft) 98,46 %
04.01.2017 01:24 5,9 C 88 % 1003,0 hPa 0,0 l/m 22,3 km/h (4 Bft) W-NW 296 0 min 0 W/m 4,1 C -2,8 C 41,8 km/h (6 Bft) 100,00 %
04.01.2017 01:27 5,9 C 87 % 1003,1 hPa 0,0 l/m 24,1 km/h (4 Bft) W-NW 296 0 min 0 W/m 3,9 C -3,4 C 48,3 km/h (6 Bft) 98,53 %
04.01.2017 01:30 5,8 C 86 % 1003,1 hPa 0,0 l/m 33,1 km/h (5 Bft) NW 311 0 min 0 W/m 3,6 C -6,0 C 54,7 km/h (7 Bft) 100,00 %
04.01.2017 01:33 5,7 C 86 % 1003,0 hPa 0,2 l/m 30,4 km/h (5 Bft) NW 311 0 min 0 W/m 3,5 C -5,5 C 49,9 km/h (7 Bft) 98,53 %
04.01.2017 01:36 5,6 C 87 % 1002,8 hPa 0,0 l/m 23,4 km/h (4 Bft) W 265 0 min 0 W/m 3,6 C -3,6 C 41,8 km/h (6 Bft) 97,37 %
04.01.2017 01:39 5,4 C 87 % 1002,7 hPa 0,0 l/m 17,0 km/h (3 Bft) W-NW 290 0 min 0 W/m 3,4 C -1,4 C 30,6 km/h (5 Bft) 97,06 %
04.01.2017 01:42 5,4 C 88 % 1002,7 hPa 0,0 l/m 19,2 km/h (3 Bft) NW 322 0 min 0 W/m 3,6 C -2,3 C 40,2 km/h (6 Bft) 98,59 %
04.01.2017 01:45 5,3 C 88 % 1002,6 hPa 0,0 l/m 19,7 km/h (3 Bft) NW 304 0 min 0 W/m 3,5 C -2,7 C 32,2 km/h (5 Bft) 97,01 %
04.01.2017 01:48 5,3 C 88 % 1002,5 hPa 0,0 l/m 19,7 km/h (3 Bft) W 273 0 min 0 W/m 3,5 C -2,7 C 37,0 km/h (5 Bft) 98,53 %
04.01.2017 01:51 5,4 C 89 % 1002,6 hPa 0,0 l/m 17,7 km/h (3 Bft) W-NW 284 0 min 0 W/m 3,7 C -1,7 C 37,0 km/h (5 Bft) 95,89 %
04.01.2017 01:54 5,6 C 89 % 1002,8 hPa 0,0 l/m 24,2 km/h (4 Bft) NW 314 0 min 0 W/m 3,9 C -3,9 C 37,0 km/h (5 Bft) 100,00 %
04.01.2017 01:57 5,8 C 89 % 1002,7 hPa 0,0 l/m 25,4 km/h (4 Bft) W-SW 254 0 min 0 W/m 4,1 C -4,0 C 38,6 km/h (6 Bft) 97,06 %
04.01.2017 02:00 5,9 C 89 % 1002,7 hPa 0,0 l/m 23,7 km/h (4 Bft) W-NW 302 0 min 0 W/m 4,2 C -3,3 C 41,8 km/h (6 Bft) 95,12 %
04.01.2017 02:03 5,9 C 88 % 1002,7 hPa 0,0 l/m 19,8 km/h (3 Bft) W-NW 286 0 min 0 W/m 4,1 C -1,9 C 32,2 km/h (5 Bft) 96,77 %
04.01.2017 02:06 5,9 C 88 % 1002,7 hPa 0,0 l/m 17,8 km/h (3 Bft) W-NW 303 0 min 0 W/m 4,1 C -1,1 C 38,6 km/h (6 Bft) 95,12 %
04.01.2017 02:09 6,0 C 88 % 1002,6 hPa 0,0 l/m 16,3 km/h (3 Bft) W 263 0 min 0 W/m 4,2 C -0,3 C 35,4 km/h (5 Bft) 94,12 %
04.01.2017 02:12 6,0 C 88 % 1002,7 hPa 0,0 l/m 18,3 km/h (3 Bft) N-NW 337 0 min 0 W/m 4,2 C -1,2 C 32,2 km/h (5 Bft) 95,52 %
04.01.2017 02:15 6,0 C 87 % 1002,6 hPa 0,2 l/m 18,4 km/h (3 Bft) W-NW 285 0 min 0 W/m 4,0 C -1,2 C 33,8 km/h (5 Bft) 97,06 %
04.01.2017 02:18 6,0 C 86 % 1002,6 hPa 0,0 l/m 18,5 km/h (3 Bft) N-NW 331 0 min 0 W/m 3,8 C -1,3 C 33,8 km/h (5 Bft) 97,47 %
04.01.2017 02:21 6,1 C 86 % 1002,5 hPa 0,0 l/m 15,0 km/h (3 Bft) W 268 0 min 0 W/m 3,9 C 0,4 C 27,4 km/h (5 Bft) 94,64 %
04.01.2017 02:24 6,2 C 86 % 1002,5 hPa 0,0 l/m 18,3 km/h (3 Bft) W-SW 258 0 min 0 W/m 4,0 C -1,0 C 38,6 km/h (6 Bft) 96,39 %
04.01.2017 02:27 6,2 C 86 % 1002,5 hPa 0,0 l/m 19,7 km/h (3 Bft) NW 308 0 min 0 W/m 4,0 C -1,5 C 37,0 km/h (5 Bft) 98,51 %
04.01.2017 02:30 6,2 C 82 % 1002,7 hPa 0,0 l/m 20,2 km/h (4 Bft) NW 312 0 min 0 W/m 3,4 C -1,7 C 37,0 km/h (5 Bft) 97,06 %
04.01.2017 02:33 6,2 C 80 % 1002,7 hPa 0,0 l/m 21,5 km/h (4 Bft) NW 323 0 min 0 W/m 3,0 C -2,2 C 40,2 km/h (6 Bft) 98,53 %
04.01.2017 02:36 6,3 C 78 % 1002,7 hPa 0,0 l/m 22,3 km/h (4 Bft) NW 312 0 min 0 W/m 2,8 C -2,3 C 41,8 km/h (6 Bft) 97,47 %
04.01.2017 02:39 6,3 C 78 % 1002,7 hPa 0,0 l/m 17,1 km/h (3 Bft) N-NW 333 0 min 0 W/m 2,8 C -0,3 C 33,8 km/h (5 Bft) 98,46 %
04.01.2017 02:42 6,4 C 77 % 1002,8 hPa 0,0 l/m 23,9 km/h (4 Bft) W-SW 240 0 min 0 W/m 2,7 C -2,7 C 49,9 km/h (7 Bft) 97,14 %
04.01.2017 02:45 6,4 C 77 % 1002,9 hPa 0,0 l/m 17,0 km/h (3 Bft) NW 306 0 min 0 W/m 2,7 C -0,1 C 35,4 km/h (5 Bft) 97,30 %
04.01.2017 02:48 6,5 C 76 % 1002,7 hPa 0,0 l/m 19,9 km/h (4 Bft) W 267 0 min 0 W/m 2,6 C -1,2 C 33,8 km/h (5 Bft) 96,88 %
04.01.2017 02:51 6,5 C 77 % 1002,8 hPa 0,0 l/m 19,7 km/h (3 Bft) N-NO 13 0 min 0 W/m 2,8 C -1,1 C 45,1 km/h (6 Bft) 95,95 %
04.01.2017 02:54 6,6 C 76 % 1002,8 hPa 0,0 l/m 24,0 km/h (4 Bft) W-NW 284 0 min 0 W/m 2,7 C -2,5 C 40,2 km/h (6 Bft) 95,16 %
04.01.2017 02:57 6,6 C 76 % 1002,8 hPa 0,0 l/m 24,5 km/h (4 Bft) N-NW 338 0 min 0 W/m 2,7 C -2,6 C 40,2 km/h (6 Bft) 94,52 %
04.01.2017 03:00 6,6 C 77 % 1002,9 hPa 0,0 l/m 17,3 km/h (3 Bft) N-NO 16 0 min 0 W/m 2,9 C -0,0 C 27,4 km/h (5 Bft) 96,25 %
04.01.2017 03:03 6,6 C 78 % 1002,8 hPa 0,2 l/m 23,1 km/h (4 Bft) NW 312 0 min 0 W/m 3,0 C -2,2 C 46,7 km/h (6 Bft) 98,57 %
04.01.2017 03:06 6,6 C 77 % 1002,9 hPa 0,0 l/m 21,0 km/h (4 Bft) N-NW 335 0 min 0 W/m 2,9 C -1,5 C 49,9 km/h (7 Bft) 100,00 %
04.01.2017 03:09 6,6 C 75 % 1002,9 hPa 0,0 l/m 26,3 km/h (4 Bft) NW 309 0 min 0 W/m 2,5 C -3,2 C 46,7 km/h (6 Bft) 100,00 %
04.01.2017 03:12 6,6 C 75 % 1002,8 hPa 0,0 l/m 24,4 km/h (4 Bft) W-SW 238 0 min 0 W/m 2,5 C -2,6 C 48,3 km/h (6 Bft) 100,00 %
04.01.2017 03:15 6,7 C 75 % 1002,7 hPa 0,0 l/m 22,4 km/h (4 Bft) N-NW 332 0 min 0 W/m 2,6 C -1,8 C 43,5 km/h (6 Bft) 100,00 %
04.01.2017 03:18 6,7 C 76 % 1002,8 hPa 0,0 l/m 25,4 km/h (4 Bft) N-NW 344 0 min 0 W/m 2,8 C -2,8 C 45,1 km/h (6 Bft) 98,57 %
04.01.2017 03:21 6,7 C 75 % 1002,8 hPa 0,0 l/m 24,6 km/h (4 Bft) NW 324 0 min 0 W/m 2,6 C -2,5 C 49,9 km/h (7 Bft) 100,00 %
04.01.2017 03:24 6,7 C 73 % 1002,9 hPa 0,0 l/m 26,8 km/h (4 Bft) N-NW 338 0 min 0 W/m 2,2 C -3,2 C 51,5 km/h (7 Bft) 100,00 %
04.01.2017 03:27 6,7 C 73 % 1002,7 hPa 0,0 l/m 20,1 km/h (4 Bft) N-NO 15 0 min 0 W/m 2,2 C -1,0 C 41,8 km/h (6 Bft) 100,00 %
04.01.2017 03:30 6,7 C 73 % 1002,6 hPa 0,0 l/m 25,7 km/h (4 Bft) N-NW 331 0 min 0 W/m 2,2 C -2,8 C 43,5 km/h (6 Bft) 100,00 %
04.01.2017 03:33 6,7 C 73 % 1002,7 hPa 0,0 l/m 26,3 km/h (4 Bft) N-NW 328 0 min 0 W/m 2,2 C -3,0 C 45,1 km/h (6 Bft) 98,59 %
04.01.2017 03:36 6,7 C 74 % 1002,8 hPa 0,2 l/m 25,1 km/h (4 Bft) W-SW 248 0 min 0 W/m 2,4 C -2,7 C 40,2 km/h (6 Bft) 98,65 %
04.01.2017 03:39 6,8 C 75 % 1002,6 hPa 0,0 l/m 20,6 km/h (4 Bft) N-NW 329 0 min 0 W/m 2,7 C -1,1 C 38,6 km/h (6 Bft) 96,55 %
04.01.2017 03:42 6,8 C 74 % 1002,6 hPa 0,0 l/m 24,2 km/h (4 Bft) NW 316 0 min 0 W/m 2,5 C -2,3 C 40,2 km/h (6 Bft) 97,30 %
04.01.2017 03:45 6,8 C 74 % 1002,6 hPa 0,0 l/m 21,5 km/h (4 Bft) W 269 0 min 0 W/m 2,5 C -1,4 C 43,5 km/h (6 Bft) 98,63 %
04.01.2017 03:48 6,8 C 75 % 1002,6 hPa 0,0 l/m 17,4 km/h (3 Bft) NW 313 0 min 0 W/m 2,7 C 0,2 C 32,2 km/h (5 Bft) 95,38 %
04.01.2017 03:51 6,8 C 75 % 1002,5 hPa 0,0 l/m 16,1 km/h (3 Bft) W-NW 283 0 min 0 W/m 2,7 C 0,7 C 35,4 km/h (5 Bft) 100,00 %
04.01.2017 03:54 6,8 C 76 % 1002,4 hPa 0,0 l/m 14,8 km/h (3 Bft) W-SW 256 0 min 0 W/m 2,9 C 1,4 C 30,6 km/h (5 Bft) 98,73 %
04.01.2017 03:57 6,8 C 76 % 1002,4 hPa 0,0 l/m 17,9 km/h (3 Bft) W-NW 296 0 min 0 W/m 2,9 C -0,0 C 33,8 km/h (5 Bft) 100,00 %
04.01.2017 04:00 6,8 C 77 % 1002,4 hPa 0,0 l/m 20,7 km/h (4 Bft) W 279 0 min 0 W/m 3,1 C -1,1 C 35,4 km/h (5 Bft) 97,01 %
04.01.2017 04:03 6,8 C 79 % 1002,4 hPa 0,0 l/m 15,9 km/h (3 Bft) SW 231 0 min 0 W/m 3,4 C 0,8 C 38,6 km/h (6 Bft) 100,00 %
04.01.2017 04:06 6,7 C 78 % 1002,3 hPa 0,0 l/m 19,3 km/h (3 Bft) W-NW 287 0 min 0 W/m 3,1 C -0,7 C 45,1 km/h (6 Bft) 100,00 %
04.01.2017 04:09 6,7 C 78 % 1002,3 hPa 0,0 l/m 20,7 km/h (4 Bft) SW 232 0 min 0 W/m 3,1 C -1,2 C 41,8 km/h (6 Bft) 97,18 %
04.01.2017 04:12 6,6 C 78 % 1002,1 hPa 0,0 l/m 21,4 km/h (4 Bft) W-NW 298 0 min 0 W/m 3,0 C -1,6 C 45,1 km/h (6 Bft) 98,46 %
04.01.2017 04:15 6,6 C 77 % 1002,0 hPa 0,0 l/m 18,6 km/h (3 Bft) W-NW 289 0 min 0 W/m 2,9 C -0,6 C 32,2 km/h (5 Bft) 98,51 %
04.01.2017 04:18 6,6 C 76 % 1001,9 hPa 0,2 l/m 21,6 km/h (4 Bft) NO 46 0 min 0 W/m 2,7 C -1,7 C 46,7 km/h (6 Bft) 100,00 %
04.01.2017 04:21 6,6 C 77 % 1001,8 hPa 0,0 l/m 21,8 km/h (4 Bft) W 277 0 min 0 W/m 2,9 C -1,7 C 40,2 km/h (6 Bft) 100,00 %
04.01.2017 04:24 6,6 C 76 % 1001,9 hPa 0,0 l/m 25,4 km/h (4 Bft) W-NW 288 0 min 0 W/m 2,7 C -2,9 C 45,1 km/h (6 Bft) 98,39 %
04.01.2017 04:27 6,7 C 76 % 1001,9 hPa 0,0 l/m 17,0 km/h (3 Bft) NW 323 0 min 0 W/m 2,8 C 0,2 C 33,8 km/h (5 Bft) 97,56 %
04.01.2017 04:30 6,7 C 79 % 1002,5 hPa 0,0 l/m 31,2 km/h (5 Bft) W-NW 294 0 min 0 W/m 3,3 C -4,3 C 64,4 km/h (8 Bft) 98,39 %
04.01.2017 04:33 6,4 C 83 % 1002,1 hPa 0,0 l/m 27,4 km/h (5 Bft) W-NW 298 0 min 0 W/m 3,7 C -3,7 C 46,7 km/h (6 Bft) 97,18 %
04.01.2017 04:36 6,1 C 86 % 1002,2 hPa 0,0 l/m 19,2 km/h (3 Bft) W-NW 292 0 min 0 W/m 3,9 C -1,4 C 38,6 km/h (6 Bft) 97,26 %
04.01.2017 04:39 5,9 C 86 % 1002,0 hPa 0,0 l/m 22,1 km/h (4 Bft) W-NW 288 0 min 0 W/m 3,7 C -2,8 C 41,8 km/h (6 Bft) 100,00 %
04.01.2017 04:42 5,7 C 87 % 1002,1 hPa 0,0 l/m 20,4 km/h (4 Bft) W-NW 300 0 min 0 W/m 3,7 C -2,4 C 38,6 km/h (6 Bft) 100,00 %
04.01.2017 04:45 5,7 C 87 % 1001,9 hPa 0,0 l/m 26,9 km/h (4 Bft) N-NW 333 0 min 0 W/m 3,7 C -4,6 C 57,9 km/h (7 Bft) 98,73 %
04.01.2017 04:48 5,6 C 87 % 1001,7 hPa 0,0 l/m 25,6 km/h (4 Bft) NW 312 0 min 0 W/m 3,6 C -4,3 C 46,7 km/h (6 Bft) 100,00 %
04.01.2017 04:51 5,5 C 87 % 1001,6 hPa 0,0 l/m 20,5 km/h (4 Bft) W-NW 287 0 min 0 W/m 3,5 C -2,7 C 37,0 km/h (5 Bft) 100,00 %
04.01.2017 04:54 5,4 C 88 % 1001,7 hPa 0,0 l/m 19,5 km/h (3 Bft) W-NW 289 0 min 0 W/m 3,6 C -2,5 C 48,3 km/h (6 Bft) 100,00 %
04.01.2017 04:57 5,4 C 88 % 1001,5 hPa 0,2 l/m 23,0 km/h (4 Bft) N-NW 348 0 min 0 W/m 3,6 C -3,7 C 43,5 km/h (6 Bft) 100,00 %
04.01.2017 05:00 5,4 C 87 % 1001,5 hPa 0,0 l/m 21,0 km/h (4 Bft) N-NW 343 0 min 0 W/m 3,4 C -3,0 C 40,2 km/h (6 Bft) 100,00 %
04.01.2017 05:03 5,4 C 87 % 1001,6 hPa 0,0 l/m 19,1 km/h (3 Bft) NW 306 0 min 0 W/m 3,4 C -2,3 C 48,3 km/h (6 Bft) 100,00 %
04.01.2017 05:06 5,4 C 86 % 1001,5 hPa 0,0 l/m 21,1 km/h (4 Bft) NW 323 0 min 0 W/m 3,3 C -3,1 C 38,6 km/h (6 Bft) 100,00 %
04.01.2017 05:09 5,5 C 85 % 1001,4 hPa 0,0 l/m 21,1 km/h (4 Bft) N-NW 348 0 min 0 W/m 3,2 C -2,9 C 33,8 km/h (5 Bft) 100,00 %
04.01.2017 05:12 5,6 C 85 % 1001,6 hPa 0,0 l/m 25,1 km/h (4 Bft) W 261 0 min 0 W/m 3,3 C -4,2 C 48,3 km/h (6 Bft) 100,00 %
04.01.2017 05:15 5,8 C 85 % 1001,5 hPa 0,0 l/m 23,1 km/h (4 Bft) W 271 0 min 0 W/m 3,5 C -3,2 C 38,6 km/h (6 Bft) 97,18 %
04.01.2017 05:18 5,8 C 84 % 1001,5 hPa 0,0 l/m 23,7 km/h (4 Bft) W 275 0 min 0 W/m 3,3 C -3,4 C 41,8 km/h (6 Bft) 96,88 %
04.01.2017 05:21 5,9 C 85 % 1001,6 hPa 0,0 l/m 22,6 km/h (4 Bft) W-NW 303 0 min 0 W/m 3,6 C -2,9 C 38,6 km/h (6 Bft) 97,50 %
04.01.2017 05:24 5,9 C 85 % 1001,5 hPa 0,0 l/m 19,6 km/h (3 Bft) W-NW 292 0 min 0 W/m 3,6 C -1,9 C 37,0 km/h (5 Bft) 95,31 %
04.01.2017 05:27 5,8 C 85 % 1001,4 hPa 0,0 l/m 16,8 km/h (3 Bft) W-SW 256 0 min 0 W/m 3,5 C -0,8 C 30,6 km/h (5 Bft) 98,53 %
04.01.2017 05:30 5,8 C 85 % 1001,4 hPa 0,0 l/m 20,1 km/h (4 Bft) W-NW 303 0 min 0 W/m 3,5 C -2,2 C 41,8 km/h (6 Bft) 100,00 %
04.01.2017 05:33 5,8 C 85 % 1001,3 hPa 0,0 l/m 20,4 km/h (4 Bft) SW 232 0 min 0 W/m 3,5 C -2,3 C 37,0 km/h (5 Bft) 100,00 %
04.01.2017 05:36 5,8 C 85 % 1001,1 hPa 0,0 l/m 21,9 km/h (4 Bft) NW 320 0 min 0 W/m 3,5 C -2,8 C 40,2 km/h (6 Bft) 100,00 %
04.01.2017 05:39 5,9 C 85 % 1001,3 hPa 0,0 l/m 21,4 km/h (4 Bft) W-NW 302 0 min 0 W/m 3,6 C -2,5 C 45,1 km/h (6 Bft) 100,00 %
04.01.2017 05:42 6,0 C 84 % 1001,4 hPa 0,2 l/m 23,5 km/h (4 Bft) NW 304 0 min 0 W/m 3,5 C -3,1 C 48,3 km/h (6 Bft) 98,94 %
04.01.2017 05:45 6,2 C 82 % 1001,6 hPa 0,0 l/m 29,4 km/h (5 Bft) N 355 0 min 0 W/m 3,4 C -4,5 C 49,9 km/h (7 Bft) 100,00 %
04.01.2017 05:54 5,1 C 83 % 1001,6 hPa 0,0 l/m 27,1 km/h (5 Bft) N-NW 331 0 min 0 W/m 2,5 C -5,4 C 33,8 km/h (5 Bft) 98,59 %
04.01.2017 05:57 4,7 C 85 % 1001,6 hPa 0,0 l/m 24,6 km/h (4 Bft) N-NW 338 0 min 0 W/m 2,4 C -5,2 C 38,6 km/h (6 Bft) 100,00 %
04.01.2017 06:00 4,6 C 86 % 1001,4 hPa 0,0 l/m 25,7 km/h (4 Bft) NW 314 0 min 0 W/m 2,5 C -5,7 C 37,0 km/h (5 Bft) 98,65 %
04.01.2017 06:03 4,5 C 88 % 1001,3 hPa 0,0 l/m 20,2 km/h (4 Bft) W 281 0 min 0 W/m 2,7 C -3,9 C 35,4 km/h (5 Bft) 100,00 %
04.01.2017 06:06 4,5 C 88 % 1001,3 hPa 0,0 l/m 20,8 km/h (4 Bft) N-NW 339 0 min 0 W/m 2,7 C -4,1 C 37,0 km/h (5 Bft) 97,30 %
04.01.2017 06:09 4,5 C 89 % 1001,2 hPa 0,0 l/m 18,1 km/h (3 Bft) W-NW 301 0 min 0 W/m 2,8 C -3,0 C 29,0 km/h (5 Bft) 98,21 %
04.01.2017 06:12 4,6 C 89 % 1001,3 hPa 0,0 l/m 19,7 km/h (3 Bft) W 279 0 min 0 W/m 2,9 C -3,6 C 33,8 km/h (5 Bft) 97,65 %
04.01.2017 06:15 4,7 C 89 % 1001,2 hPa 0,0 l/m 11,7 km/h (2 Bft) NW 315 0 min 0 W/m 3,0 C 0,6 C 22,5 km/h (4 Bft) 95,38 %
04.01.2017 06:18 4,8 C 89 % 1001,1 hPa 0,0 l/m 17,0 km/h (3 Bft) W-SW 246 0 min 0 W/m 3,1 C -2,1 C 35,4 km/h (5 Bft) 96,88 %
04.01.2017 06:21 4,9 C 89 % 1001,3 hPa 0,2 l/m 26,0 km/h (4 Bft) N-NW 342 0 min 0 W/m 3,2 C -5,4 C 45,1 km/h (6 Bft) 98,31 %
04.01.2017 06:24 5,2 C 87 % 1001,4 hPa 0,0 l/m 28,9 km/h (5 Bft) W 263 0 min 0 W/m 3,2 C -5,8 C 62,8 km/h (7 Bft) 100,00 %
04.01.2017 06:27 5,3 C 85 % 1001,4 hPa 0,0 l/m 34,5 km/h (5 Bft) N-NW 327 0 min 0 W/m 3,0 C -7,0 C 54,7 km/h (7 Bft) 100,00 %
04.01.2017 06:30 5,3 C 84 % 1001,7 hPa 0,0 l/m 40,4 km/h (6 Bft) N-NW 342 0 min 0 W/m 2,8 C -8,1 C 66,0 km/h (8 Bft) 100,00 %
04.01.2017 06:33 5,3 C 83 % 1001,2 hPa 0,0 l/m 24,9 km/h (4 Bft) W-NW 290 0 min 0 W/m 2,7 C -4,5 C 53,1 km/h (7 Bft) 100,00 %
04.01.2017 06:36 5,1 C 83 % 1001,5 hPa 0,0 l/m 18,2 km/h (3 Bft) NW 304 0 min 0 W/m 2,5 C -2,3 C 40,2 km/h (6 Bft) 100,00 %
04.01.2017 06:39 5,0 C 83 % 1001,4 hPa 0,0 l/m 19,2 km/h (3 Bft) N-NW 346 0 min 0 W/m 2,4 C -2,8 C 48,3 km/h (6 Bft) 98,44 %
04.01.2017 06:42 4,9 C 84 % 1001,4 hPa 0,0 l/m 18,6 km/h (3 Bft) W-NW 290 0 min 0 W/m 2,4 C -2,7 C 37,0 km/h (5 Bft) 97,40 %
04.01.2017 06:45 4,9 C 85 % 1001,5 hPa 0,0 l/m 18,6 km/h (3 Bft) NW 326 0 min 0 W/m 2,6 C -2,7 C 37,0 km/h (5 Bft) 97,14 %
04.01.2017 06:48 4,9 C 86 % 1001,6 hPa 0,0 l/m 21,8 km/h (4 Bft) W 281 0 min 0 W/m 2,8 C -4,0 C 38,6 km/h (6 Bft) 98,39 %
04.01.2017 06:51 4,9 C 86 % 1001,5 hPa 0,0 l/m 22,9 km/h (4 Bft) W-SW 251 0 min 0 W/m 2,8 C -4,4 C 43,5 km/h (6 Bft) 97,18 %
04.01.2017 06:54 4,9 C 85 % 1001,4 hPa 0,0 l/m 21,5 km/h (4 Bft) W 265 0 min 0 W/m 2,6 C -3,9 C 40,2 km/h (6 Bft) 98,68 %
04.01.2017 06:57 4,8 C 85 % 1001,2 hPa 0,0 l/m 17,4 km/h (3 Bft) NW 313 0 min 0 W/m 2,5 C -2,3 C 33,8 km/h (5 Bft) 96,92 %
04.01.2017 07:00 4,8 C 85 % 1001,1 hPa 0,0 l/m 17,9 km/h (3 Bft) W 273 0 min 0 W/m 2,5 C -2,5 C 32,2 km/h (5 Bft) 93,15 %
04.01.2017 07:03 4,8 C 85 % 1001,1 hPa 0,0 l/m 25,6 km/h (4 Bft) N-NW 346 0 min 0 W/m 2,5 C -5,4 C 51,5 km/h (7 Bft) 95,38 %
04.01.2017 07:06 4,9 C 84 % 1001,1 hPa 0,0 l/m 22,8 km/h (4 Bft) N 5 0 min 0 W/m 2,4 C -4,3 C 41,8 km/h (6 Bft) 95,77 %
04.01.2017 07:09 5,1 C 82 % 1001,2 hPa 0,0 l/m 25,7 km/h (4 Bft) NW 321 0 min 0 W/m 2,3 C -5,0 C 51,5 km/h (7 Bft) 94,74 %
04.01.2017 07:12 5,2 C 82 % 1001,0 hPa 0,2 l/m 25,7 km/h (4 Bft) W-NW 297 0 min 0 W/m 2,4 C -4,9 C 46,7 km/h (6 Bft) 95,77 %
04.01.2017 07:15 5,4 C 82 % 1001,3 hPa 0,0 l/m 24,3 km/h (4 Bft) N-NW 343 0 min 0 W/m 2,6 C -4,2 C 41,8 km/h (6 Bft) 97,26 %
04.01.2017 07:18 5,5 C 82 % 1001,3 hPa 0,0 l/m 30,7 km/h (5 Bft) W 274 0 min 0 W/m 2,7 C -5,8 C 49,9 km/h (7 Bft) 97,18 %
04.01.2017 07:21 5,4 C 82 % 1001,2 hPa 0,0 l/m 23,1 km/h (4 Bft) NW 308 0 min 0 W/m 2,6 C -3,8 C 53,1 km/h (7 Bft) 96,72 %
04.01.2017 07:24 5,2 C 83 % 1001,1 hPa 0,0 l/m 23,8 km/h (4 Bft) W 281 0 min 0 W/m 2,6 C -4,3 C 43,5 km/h (6 Bft) 98,59 %
04.01.2017 07:27 5,1 C 83 % 1001,1 hPa 0,0 l/m 20,5 km/h (4 Bft) W 281 0 min 0 W/m 2,5 C -3,2 C 33,8 km/h (5 Bft) 94,74 %
04.01.2017 07:30 5,1 C 83 % 1001,0 hPa 0,0 l/m 19,7 km/h (3 Bft) NW 307 0 min 0 W/m 2,5 C -2,9 C 37,0 km/h (5 Bft) 97,18 %
04.01.2017 07:33 5,1 C 82 % 1001,0 hPa 0,0 l/m 20,9 km/h (4 Bft) W-NW 300 0 min 0 W/m 2,3 C -3,4 C 37,0 km/h (5 Bft) 98,59 %
04.01.2017 07:36 5,2 C 82 % 1001,0 hPa 0,0 l/m 19,7 km/h (3 Bft) W 271 0 min 0 W/m 2,4 C -2,8 C 37,0 km/h (5 Bft) 96,72 %
04.01.2017 07:39 5,3 C 82 % 1001,0 hPa 0,0 l/m 23,3 km/h (4 Bft) W-NW 294 0 min 0 W/m 2,5 C -4,0 C 46,7 km/h (6 Bft) 98,65 %
04.01.2017 07:42 5,4 C 82 % 1001,0 hPa 0,0 l/m 17,4 km/h (3 Bft) NW 325 0 min 0 W/m 2,6 C -1,6 C 33,8 km/h (5 Bft) 97,14 %
04.01.2017 07:45 5,5 C 83 % 1000,9 hPa 0,0 l/m 18,2 km/h (3 Bft) NW 309 0 min 0 W/m 2,8 C -1,8 C 30,6 km/h (5 Bft) 97,30 %
04.01.2017 07:48 5,6 C 83 % 1001,0 hPa 0,0 l/m 22,1 km/h (4 Bft) NW 321 0 min 0 W/m 2,9 C -3,2 C 33,8 km/h (5 Bft) 98,46 %
04.01.2017 07:51 5,6 C 81 % 1001,1 hPa 0,0 l/m 26,1 km/h (4 Bft) N 355 0 min 0 W/m 2,6 C -4,5 C 45,1 km/h (6 Bft) 92,86 %
04.01.2017 07:54 5,7 C 80 % 1000,9 hPa 0,2 l/m 25,5 km/h (4 Bft) N-NW 336 0 min 0 W/m 2,5 C -4,1 C 35,4 km/h (5 Bft) 97,30 %
04.01.2017 07:57 5,8 C 78 % 1000,8 hPa 0,0 l/m 26,0 km/h (4 Bft) W-NW 301 0 min 0 W/m 2,3 C -4,2 C 38,6 km/h (6 Bft) 95,08 %
04.01.2017 08:00 5,8 C 77 % 1000,9 hPa 0,0 l/m 27,4 km/h (5 Bft) N-NW 343 0 min 0 W/m 2,1 C -4,6 C 46,7 km/h (6 Bft) 95,18 %
04.01.2017 08:03 5,9 C 77 % 1001,0 hPa 0,0 l/m 25,5 km/h (4 Bft) W-NW 300 0 min 0 W/m 2,2 C -3,9 C 43,5 km/h (6 Bft) 98,44 %
04.01.2017 08:06 5,9 C 78 % 1001,1 hPa 0,0 l/m 22,7 km/h (4 Bft) N-NW 335 0 min 0 W/m 2,4 C -3,0 C 43,5 km/h (6 Bft) 100,00 %
04.01.2017 08:09 5,9 C 79 % 1001,2 hPa 0,0 l/m 24,3 km/h (4 Bft) SW 235 0 min 0 W/m 2,5 C -3,5 C 43,5 km/h (6 Bft) 98,65 %
04.01.2017 08:12 6,0 C 79 % 1001,1 hPa 0,0 l/m 20,0 km/h (4 Bft) NW 315 0 min 0 W/m 2,6 C -1,9 C 32,2 km/h (5 Bft) 100,00 %
04.01.2017 08:15 6,0 C 78 % 1001,1 hPa 0,0 l/m 23,3 km/h (4 Bft) N 355 0 min 0 W/m 2,5 C -3,0 C 37,0 km/h (5 Bft) 95,77 %
04.01.2017 08:18 6,0 C 76 % 1001,0 hPa 0,0 l/m 22,6 km/h (4 Bft) NW 321 0 min 0 W/m 2,1 C -2,8 C 45,1 km/h (6 Bft) 100,00 %
04.01.2017 08:21 6,1 C 76 % 1000,9 hPa 0,0 l/m 23,7 km/h (4 Bft) NW 323 0 min 0 W/m 2,2 C -3,0 C 43,5 km/h (6 Bft) 100,00 %
04.01.2017 08:24 6,2 C 77 % 1001,4 hPa 0,0 l/m 28,2 km/h (5 Bft) W 261 0 min 0 W/m 2,5 C -4,2 C 51,5 km/h (7 Bft) 100,00 %
04.01.2017 08:27 6,0 C 80 % 1001,3 hPa 0,0 l/m 29,7 km/h (5 Bft) NW 324 0 min 0 W/m 2,8 C -4,9 C 46,7 km/h (6 Bft) 100,00 %
04.01.2017 08:30 5,7 C 81 % 1001,2 hPa 0,0 l/m 22,6 km/h (4 Bft) NW 311 0 min 0 W/m 2,7 C -3,2 C 41,8 km/h (6 Bft) 100,00 %
04.01.2017 08:33 5,4 C 82 % 1001,2 hPa 0,0 l/m 21,3 km/h (4 Bft) W-NW 301 0 min 0 W/m 2,6 C -3,1 C 35,4 km/h (5 Bft) 98,53 %
04.01.2017 08:36 5,2 C 84 % 1001,2 hPa 0,0 l/m 20,0 km/h (4 Bft) N-NW 333 0 min 0 W/m 2,7 C -2,9 C 35,4 km/h (5 Bft) 97,18 %
04.01.2017 08:39 5,2 C 85 % 1001,2 hPa 0,0 l/m 21,6 km/h (4 Bft) NW 313 0 min 0 W/m 2,9 C -3,5 C 38,6 km/h (6 Bft) 100,00 %
04.01.2017 08:42 5,1 C 85 % 1001,1 hPa 0,0 l/m 14,8 km/h (3 Bft) NW 317 0 min 0 W/m 2,8 C -0,7 C 38,6 km/h (6 Bft) 96,77 %
04.01.2017 08:45 5,1 C 86 % 1001,2 hPa 0,0 l/m 20,9 km/h (4 Bft) W 261 0 min 0 W/m 3,0 C -3,4 C 38,6 km/h (6 Bft) 97,56 %
04.01.2017 08:48 5,2 C 85 % 1001,1 hPa 0,0 l/m 19,8 km/h (3 Bft) W 263 0 min 0 W/m 2,9 C -2,8 C 35,4 km/h (5 Bft) 97,06 %
04.01.2017 08:51 5,3 C 85 % 1001,2 hPa 0,0 l/m 17,4 km/h (3 Bft) W-NW 290 0 min 0 W/m 3,0 C -1,7 C 37,0 km/h (5 Bft) 98,53 %
04.01.2017 08:54 5,3 C 85 % 1001,2 hPa 0,2 l/m 23,0 km/h (4 Bft) W 269 0 min 0 W/m 3,0 C -3,9 C 51,5 km/h (7 Bft) 94,52 %
04.01.2017 08:57 5,4 C 85 % 1001,3 hPa 0,0 l/m 20,7 km/h (4 Bft) W-NW 295 0 min 5 W/m 3,1 C -2,9 C 38,6 km/h (6 Bft) 100,00 %
04.01.2017 09:00 5,6 C 85 % 1001,2 hPa 0,0 l/m 21,8 km/h (4 Bft) NW 315 0 min 5 W/m 3,3 C -3,1 C 37,0 km/h (5 Bft) 98,21 %
04.01.2017 09:03 5,7 C 84 % 1001,2 hPa 0,0 l/m 22,3 km/h (4 Bft) W-NW 284 0 min 11 W/m 3,2 C -3,1 C 49,9 km/h (7 Bft) 100,00 %
04.01.2017 09:06 5,7 C 82 % 1001,5 hPa 0,0 l/m 29,1 km/h (5 Bft) W-NW 302 0 min 11 W/m 2,9 C -5,2 C 49,9 km/h (7 Bft) 98,53 %
04.01.2017 09:09 5,8 C 82 % 1001,5 hPa 0,0 l/m 29,2 km/h (5 Bft) N-NW 333 0 min 11 W/m 3,0 C -5,0 C 48,3 km/h (6 Bft) 100,00 %
04.01.2017 09:12 5,6 C 81 % 1001,2 hPa 0,0 l/m 22,6 km/h (4 Bft) N-NW 328 0 min 12 W/m 2,6 C -3,3 C 35,4 km/h (5 Bft) 100,00 %
04.01.2017 09:15 5,3 C 81 % 1001,3 hPa 0,0 l/m 23,0 km/h (4 Bft) NW 311 0 min 12 W/m 2,3 C -3,9 C 38,6 km/h (6 Bft) 100,00 %
04.01.2017 09:18 5,2 C 82 % 1001,1 hPa 0,0 l/m 19,5 km/h (3 Bft) W-NW 296 0 min 14 W/m 2,4 C -2,7 C 40,2 km/h (6 Bft) 100,00 %
04.01.2017 09:21 5,2 C 82 % 1001,0 hPa 0,0 l/m 22,0 km/h (4 Bft) NW 304 0 min 12 W/m 2,4 C -3,7 C 43,5 km/h (6 Bft) 100,00 %
04.01.2017 09:24 5,3 C 82 % 1001,1 hPa 0,0 l/m 20,1 km/h (4 Bft) NW 306 0 min 11 W/m 2,5 C -2,8 C 38,6 km/h (6 Bft) 100,00 %
04.01.2017 09:27 5,3 C 83 % 1001,1 hPa 0,0 l/m 24,4 km/h (4 Bft) W-NW 282 0 min 14 W/m 2,7 C -4,3 C 45,1 km/h (6 Bft) 100,00 %
04.01.2017 09:30 5,4 C 83 % 1001,2 hPa 0,0 l/m 25,8 km/h (4 Bft) W 269 0 min 19 W/m 2,7 C -4,6 C 45,1 km/h (6 Bft) 100,00 %
04.01.2017 09:33 5,5 C 83 % 1001,4 hPa 0,2 l/m 20,8 km/h (4 Bft) W 280 0 min 18 W/m 2,8 C -2,8 C 37,0 km/h (5 Bft) 95,59 %
04.01.2017 09:36 5,6 C 84 % 1001,2 hPa 0,0 l/m 19,6 km/h (3 Bft) NW 319 0 min 21 W/m 3,1 C -2,2 C 40,2 km/h (6 Bft) 98,21 %
04.01.2017 09:39 5,6 C 84 % 1001,2 hPa 0,0 l/m 18,4 km/h (3 Bft) W 279 0 min 16 W/m 3,1 C -1,8 C 32,2 km/h (5 Bft) 97,56 %
04.01.2017 09:42 5,6 C 84 % 1001,1 hPa 0,0 l/m 14,2 km/h (3 Bft) N-NW 341 0 min 14 W/m 3,1 C 0,2 C 30,6 km/h (5 Bft) 95,71 %
04.01.2017 09:45 5,6 C 84 % 1001,2 hPa 0,0 l/m 17,2 km/h (3 Bft) SW 222 0 min 18 W/m 3,1 C -1,2 C 37,0 km/h (5 Bft) 98,73 %
04.01.2017 09:48 5,6 C 84 % 1001,0 hPa 0,0 l/m 15,2 km/h (3 Bft) W-NW 286 0 min 28 W/m 3,1 C -0,3 C 33,8 km/h (5 Bft) 100,00 %
04.01.2017 09:51 5,7 C 84 % 1001,2 hPa 0,0 l/m 15,7 km/h (3 Bft) N-NW 335 0 min 47 W/m 3,2 C -0,4 C 32,2 km/h (5 Bft) 98,44 %
04.01.2017 09:54 5,7 C 84 % 1001,1 hPa 0,0 l/m 22,0 km/h (4 Bft) N-NW 327 0 min 42 W/m 3,2 C -3,0 C 41,8 km/h (6 Bft) 100,00 %
04.01.2017 09:57 5,8 C 83 % 1001,2 hPa 0,0 l/m 17,6 km/h (3 Bft) W 267 0 min 33 W/m 3,1 C -1,2 C 41,8 km/h (6 Bft) 100,00 %
04.01.2017 10:00 5,8 C 83 % 1001,4 hPa 0,0 l/m 17,4 km/h (3 Bft) NW 316 0 min 51 W/m 3,1 C -1,1 C 35,4 km/h (5 Bft) 100,00 %
04.01.2017 10:03 5,9 C 83 % 1001,4 hPa 0,0 l/m 19,5 km/h (3 Bft) W-NW 294 0 min 58 W/m 3,2 C -1,8 C 43,5 km/h (6 Bft) 100,00 %
04.01.2017 10:06 5,9 C 82 % 1001,6 hPa 0,0 l/m 19,6 km/h (3 Bft) W-NW 293 0 min 63 W/m 3,1 C -1,9 C 37,0 km/h (5 Bft) 100,00 %
04.01.2017 10:09 6,1 C 81 % 1001,6 hPa 0,0 l/m 21,1 km/h (4 Bft) N 10 3 min 76 W/m 3,1 C -2,2 C 46,7 km/h (6 Bft) 100,00 %
04.01.2017 10:12 6,1 C 81 % 1001,8 hPa 0,0 l/m 26,1 km/h (4 Bft) NW 307 0 min 18 W/m 3,1 C -3,8 C 46,7 km/h (6 Bft) 100,00 %
04.01.2017 10:15 5,8 C 83 % 1001,6 hPa 0,0 l/m 22,0 km/h (4 Bft) NW 313 0 min 16 W/m 3,1 C -2,9 C 45,1 km/h (6 Bft) 100,00 %
04.01.2017 10:18 5,6 C 84 % 1001,6 hPa 0,0 l/m 20,1 km/h (4 Bft) N-NW 329 0 min 18 W/m 3,1 C -2,4 C 43,5 km/h (6 Bft) 100,00 %
04.01.2017 10:21 5,3 C 85 % 1001,9 hPa 0,0 l/m 19,3 km/h (3 Bft) SW 217 0 min 12 W/m 3,0 C -2,5 C 32,2 km/h (5 Bft) 98,86 %
04.01.2017 10:24 5,2 C 86 % 1001,8 hPa 0,0 l/m 23,1 km/h (4 Bft) N-NW 348 0 min 16 W/m 3,1 C -4,0 C 40,2 km/h (6 Bft) 97,47 %
04.01.2017 10:27 5,2 C 87 % 1001,8 hPa 0,0 l/m 25,2 km/h (4 Bft) NW 313 0 min 14 W/m 3,2 C -4,7 C 43,5 km/h (6 Bft) 96,92 %
04.01.2017 10:30 5,2 C 87 % 1001,7 hPa 0,0 l/m 27,6 km/h (5 Bft) W-NW 285 0 min 18 W/m 3,2 C -5,4 C 49,9 km/h (7 Bft) 98,46 %
04.01.2017 10:33 5,2 C 87 % 1001,7 hPa 0,0 l/m 25,6 km/h (4 Bft) W-NW 294 0 min 37 W/m 3,2 C -4,9 C 38,6 km/h (6 Bft) 97,26 %
04.01.2017 10:36 5,0 C 87 % 1001,7 hPa 0,0 l/m 22,0 km/h (4 Bft) N-NW 329 0 min 49 W/m 3,0 C -3,9 C 33,8 km/h (5 Bft) 98,75 %
04.01.2017 10:39 5,0 C 89 % 1001,6 hPa 0,0 l/m 22,0 km/h (4 Bft) NW 316 0 min 11 W/m 3,3 C -3,9 C 40,2 km/h (6 Bft) 94,03 %
04.01.2017 10:42 5,1 C 89 % 1001,7 hPa 0,2 l/m 23,4 km/h (4 Bft) N-NW 334 0 min 9 W/m 3,4 C -4,3 C 41,8 km/h (6 Bft) 100,00 %
04.01.2017 10:45 5,1 C 90 % 1001,9 hPa 0,0 l/m 31,6 km/h (5 Bft) NW 323 0 min 9 W/m 3,6 C -6,6 C 48,3 km/h (6 Bft) 100,00 %
04.01.2017 10:48 5,1 C 90 % 1001,9 hPa 0,0 l/m 26,1 km/h (4 Bft) W-NW 294 0 min 21 W/m 3,6 C -5,1 C 43,5 km/h (6 Bft) 100,00 %
04.01.2017 10:51 5,1 C 90 % 1001,9 hPa 0,0 l/m 26,5 km/h (4 Bft) N 355 0 min 11 W/m 3,6 C -5,3 C 40,2 km/h (6 Bft) 100,00 %
04.01.2017 10:54 5,1 C 90 % 1002,0 hPa 0,0 l/m 23,5 km/h (4 Bft) NW 306 0 min 21 W/m 3,6 C -4,3 C 41,8 km/h (6 Bft) 100,00 %
04.01.2017 10:57 5,0 C 90 % 1001,9 hPa 0,0 l/m 20,6 km/h (4 Bft) NW 313 0 min 33 W/m 3,5 C -3,4 C 38,6 km/h (6 Bft) 100,00 %
04.01.2017 11:00 4,9 C 90 % 1001,8 hPa 0,0 l/m 24,3 km/h (4 Bft) NW 320 0 min 39 W/m 3,4 C -4,9 C 38,6 km/h (6 Bft) 98,31 %
04.01.2017 11:03 4,9 C 90 % 1001,8 hPa 0,0 l/m 20,5 km/h (4 Bft) NW 309 0 min 46 W/m 3,4 C -3,5 C 35,4 km/h (5 Bft) 100,00 %
04.01.2017 11:06 4,9 C 90 % 1002,0 hPa 0,0 l/m 18,2 km/h (3 Bft) N-NW 331 0 min 67 W/m 3,4 C -2,6 C 35,4 km/h (5 Bft) 100,00 %
04.01.2017 11:09 5,1 C 90 % 1002,0 hPa 0,0 l/m 13,6 km/h (3 Bft) NW 317 0 min 95 W/m 3,6 C -0,1 C 32,2 km/h (5 Bft) 100,00 %
04.01.2017 11:12 5,2 C 91 % 1002,0 hPa 0,0 l/m 17,1 km/h (3 Bft) W 264 0 min 109 W/m 3,9 C -1,7 C 29,0 km/h (5 Bft) 100,00 %
04.01.2017 11:15 5,3 C 90 % 1002,0 hPa 0,0 l/m 18,6 km/h (3 Bft) W-NW 292 0 min 95 W/m 3,8 C -2,2 C 43,5 km/h (6 Bft) 98,63 %
04.01.2017 11:18 5,4 C 90 % 1002,0 hPa 0,0 l/m 19,4 km/h (3 Bft) N-NW 338 0 min 32 W/m 3,9 C -2,4 C 32,2 km/h (5 Bft) 97,18 %
04.01.2017 11:21 5,4 C 89 % 1002,2 hPa 0,0 l/m 18,4 km/h (3 Bft) W-NW 296 0 min 16 W/m 3,7 C -2,0 C 35,4 km/h (5 Bft) 97,06 %
04.01.2017 11:24 5,4 C 89 % 1002,3 hPa 0,0 l/m 23,9 km/h (4 Bft) N-NW 327 0 min 11 W/m 3,7 C -4,0 C 43,5 km/h (6 Bft) 98,57 %
04.01.2017 11:27 5,4 C 90 % 1002,5 hPa 0,0 l/m 23,8 km/h (4 Bft) W-NW 299 0 min 14 W/m 3,9 C -4,0 C 43,5 km/h (6 Bft) 95,95 %
04.01.2017 11:30 5,3 C 90 % 1002,4 hPa 0,0 l/m 24,3 km/h (4 Bft) W-NW 299 0 min 19 W/m 3,8 C -4,3 C 43,5 km/h (6 Bft) 98,57 %
04.01.2017 11:33 5,3 C 90 % 1002,4 hPa 0,0 l/m 22,3 km/h (4 Bft) N-NW 345 0 min 30 W/m 3,8 C -3,6 C 43,5 km/h (6 Bft) 98,46 %
04.01.2017 11:36 5,3 C 90 % 1002,5 hPa 0,0 l/m 18,4 km/h (3 Bft) NW 313 0 min 35 W/m 3,8 C -2,1 C 30,6 km/h (5 Bft) 95,71 %
04.01.2017 11:39 5,2 C 90 % 1002,5 hPa 0,0 l/m 21,9 km/h (4 Bft) N-NW 334 0 min 46 W/m 3,7 C -3,6 C 30,6 km/h (5 Bft) 98,65 %
04.01.2017 11:42 5,2 C 90 % 1002,5 hPa 0,0 l/m 21,8 km/h (4 Bft) NW 326 0 min 49 W/m 3,7 C -3,6 C 35,4 km/h (5 Bft) 97,44 %
04.01.2017 11:45 5,2 C 91 % 1002,5 hPa 0,2 l/m 21,8 km/h (4 Bft) N-NO 13 0 min 53 W/m 3,9 C -3,6 C 38,6 km/h (6 Bft) 94,92 %
04.01.2017 11:48 5,2 C 91 % 1002,5 hPa 0,0 l/m 20,7 km/h (4 Bft) N-NW 345 0 min 54 W/m 3,9 C -3,2 C 38,6 km/h (6 Bft) 98,59 %
04.01.2017 11:51 5,3 C 91 % 1002,5 hPa 0,0 l/m 19,9 km/h (4 Bft) N-NW 344 0 min 58 W/m 4,0 C -2,7 C 35,4 km/h (5 Bft) 96,05 %
04.01.2017 11:54 5,3 C 91 % 1002,6 hPa 0,0 l/m 19,5 km/h (3 Bft) W-NW 296 0 min 58 W/m 4,0 C -2,6 C 27,4 km/h (5 Bft) 98,59 %
04.01.2017 11:57 5,3 C 92 % 1002,6 hPa 0,0 l/m 18,0 km/h (3 Bft) NW 319 0 min 54 W/m 4,1 C -2,0 C 30,6 km/h (5 Bft) 96,23 %
04.01.2017 12:00 5,4 C 92 % 1002,6 hPa 0,0 l/m 16,1 km/h (3 Bft) NW 319 0 min 49 W/m 4,2 C -1,0 C 24,1 km/h (4 Bft) 98,86 %
04.01.2017 12:03 5,4 C 92 % 1002,8 hPa 0,0 l/m 17,0 km/h (3 Bft) N 9 0 min 47 W/m 4,2 C -1,4 C 25,7 km/h (4 Bft) 97,06 %
04.01.2017 12:06 5,4 C 91 % 1002,9 hPa 0,0 l/m 16,2 km/h (3 Bft) N-NW 331 0 min 44 W/m 4,1 C -1,0 C 29,0 km/h (5 Bft) 96,05 %
04.01.2017 12:09 5,4 C 91 % 1002,9 hPa 0,0 l/m 17,8 km/h (3 Bft) N 5 0 min 42 W/m 4,1 C -1,7 C 29,0 km/h (5 Bft) 93,62 %
04.01.2017 12:12 5,5 C 90 % 1002,9 hPa 0,0 l/m 15,5 km/h (3 Bft) NW 324 0 min 46 W/m 4,0 C -0,6 C 27,4 km/h (5 Bft) 95,60 %
04.01.2017 12:15 5,6 C 89 % 1003,0 hPa 0,0 l/m 16,3 km/h (3 Bft) N 355 0 min 49 W/m 3,9 C -0,8 C 27,4 km/h (5 Bft) 94,37 %
04.01.2017 12:18 5,6 C 88 % 1003,1 hPa 0,0 l/m 19,8 km/h (3 Bft) N-NW 340 0 min 51 W/m 3,8 C -2,3 C 27,4 km/h (5 Bft) 95,71 %
04.01.2017 12:21 5,7 C 88 % 1003,1 hPa 0,0 l/m 17,5 km/h (3 Bft) N-NW 336 0 min 37 W/m 3,9 C -1,2 C 30,6 km/h (5 Bft) 97,18 %
04.01.2017 12:24 5,7 C 87 % 1003,1 hPa 0,0 l/m 17,8 km/h (3 Bft) N 360 0 min 42 W/m 3,7 C -1,4 C 29,0 km/h (5 Bft) 98,53 %
04.01.2017 12:27 5,7 C 87 % 1003,3 hPa 0,0 l/m 15,3 km/h (3 Bft) N-NO 13 0 min 35 W/m 3,7 C -0,2 C 27,4 km/h (5 Bft) 97,26 %
04.01.2017 12:30 5,7 C 86 % 1003,3 hPa 0,0 l/m 18,5 km/h (3 Bft) N 355 0 min 35 W/m 3,5 C -1,7 C 33,8 km/h (5 Bft) 96,77 %
04.01.2017 12:33 5,7 C 85 % 1003,4 hPa 0,0 l/m 20,5 km/h (4 Bft) NW 313 0 min 30 W/m 3,4 C -2,5 C 32,2 km/h (5 Bft) 98,63 %
04.01.2017 12:36 5,7 C 84 % 1003,4 hPa 0,0 l/m 19,6 km/h (3 Bft) N-NW 338 0 min 32 W/m 3,2 C -2,1 C 33,8 km/h (5 Bft) 97,18 %
04.01.2017 12:39 5,7 C 84 % 1003,5 hPa 0,0 l/m 16,9 km/h (3 Bft) N-NW 348 0 min 40 W/m 3,2 C -1,0 C 32,2 km/h (5 Bft) 98,46 %
04.01.2017 12:42 5,7 C 84 % 1003,5 hPa 0,0 l/m 19,8 km/h (3 Bft) NW 323 0 min 49 W/m 3,2 C -2,2 C 32,2 km/h (5 Bft) 97,14 %
04.01.2017 12:45 5,8 C 84 % 1003,6 hPa 0,0 l/m 20,6 km/h (4 Bft) N-NO 22 0 min 62 W/m 3,3 C -2,4 C 29,0 km/h (5 Bft) 98,59 %
04.01.2017 12:48 5,8 C 84 % 1003,6 hPa 0,0 l/m 16,7 km/h (3 Bft) N 5 0 min 90 W/m 3,3 C -0,8 C 33,8 km/h (5 Bft) 97,26 %
04.01.2017 12:51 5,9 C 82 % 1003,7 hPa 0,0 l/m 20,1 km/h (4 Bft) N 360 3 min 158 W/m 3,1 C -2,0 C 35,4 km/h (5 Bft) 95,95 %
04.01.2017 12:54 5,9 C 79 % 1003,7 hPa 0,0 l/m 18,8 km/h (3 Bft) N 360 3 min 174 W/m 2,5 C -1,5 C 27,4 km/h (5 Bft) 98,39 %
04.01.2017 12:57 5,9 C 79 % 1003,8 hPa 0,0 l/m 20,9 km/h (4 Bft) N 355 0 min 102 W/m 2,5 C -2,3 C 30,6 km/h (5 Bft) 93,90 %
04.01.2017 13:00 5,9 C 80 % 1003,8 hPa 0,0 l/m 16,1 km/h (3 Bft) N-NW 343 0 min 93 W/m 2,7 C -0,4 C 30,6 km/h (5 Bft) 96,92 %
04.01.2017 13:03 5,8 C 81 % 1003,8 hPa 0,0 l/m 16,5 km/h (3 Bft) N-NW 340 0 min 70 W/m 2,8 C -0,7 C 27,4 km/h (5 Bft) 96,88 %
04.01.2017 13:06 5,8 C 82 % 1003,8 hPa 0,0 l/m 17,5 km/h (3 Bft) NW 319 0 min 37 W/m 3,0 C -1,1 C 27,4 km/h (5 Bft) 97,30 %
04.01.2017 13:09 5,7 C 82 % 1003,9 hPa 0,0 l/m 15,7 km/h (3 Bft) N-NW 329 0 min 54 W/m 2,9 C -0,4 C 30,6 km/h (5 Bft) 98,44 %
04.01.2017 13:12 5,7 C 82 % 1003,9 hPa 0,0 l/m 15,4 km/h (3 Bft) N-NW 342 0 min 70 W/m 2,9 C -0,3 C 29,0 km/h (5 Bft) 100,00 %
04.01.2017 13:15 5,7 C 81 % 1003,8 hPa 0,2 l/m 17,9 km/h (3 Bft) NW 319 0 min 83 W/m 2,7 C -1,4 C 33,8 km/h (5 Bft) 100,00 %
04.01.2017 13:18 5,7 C 80 % 1004,0 hPa 0,0 l/m 19,7 km/h (3 Bft) N-NW 336 0 min 90 W/m 2,5 C -2,2 C 29,0 km/h (5 Bft) 100,00 %
04.01.2017 13:21 5,7 C 80 % 1004,1 hPa 0,0 l/m 18,9 km/h (3 Bft) NW 321 3 min 153 W/m 2,5 C -1,8 C 29,0 km/h (5 Bft) 100,00 %
04.01.2017 13:24 5,8 C 79 % 1004,1 hPa 0,0 l/m 20,0 km/h (4 Bft) N 11 3 min 185 W/m 2,4 C -2,1 C 30,6 km/h (5 Bft) 98,57 %
04.01.2017 13:27 5,8 C 79 % 1004,3 hPa 0,0 l/m 20,3 km/h (4 Bft) N 355 0 min 77 W/m 2,4 C -2,3 C 33,8 km/h (5 Bft) 100,00 %
04.01.2017 13:30 5,8 C 78 % 1004,3 hPa 0,0 l/m 21,5 km/h (4 Bft) N-NO 24 0 min 88 W/m 2,3 C -2,7 C 35,4 km/h (5 Bft) 100,00 %
04.01.2017 13:33 5,7 C 78 % 1004,3 hPa 0,0 l/m 21,2 km/h (4 Bft) N 360 0 min 79 W/m 2,2 C -2,7 C 29,0 km/h (5 Bft) 100,00 %
04.01.2017 13:36 5,7 C 77 % 1004,5 hPa 0,0 l/m 23,7 km/h (4 Bft) NW 308 0 min 98 W/m 2,0 C -3,6 C 35,4 km/h (5 Bft) 100,00 %
04.01.2017 13:39 5,7 C 78 % 1004,6 hPa 0,0 l/m 20,2 km/h (4 Bft) N-NW 340 0 min 84 W/m 2,2 C -2,3 C 33,8 km/h (5 Bft) 98,68 %
04.01.2017 13:42 5,6 C 79 % 1004,6 hPa 0,0 l/m 15,9 km/h (3 Bft) N-NW 339 0 min 51 W/m 2,3 C -0,6 C 30,6 km/h (5 Bft) 98,46 %
04.01.2017 13:45 5,4 C 79 % 1004,7 hPa 0,0 l/m 18,7 km/h (3 Bft) N-NW 329 0 min 90 W/m 2,1 C -2,1 C 33,8 km/h (5 Bft) 96,59 %
04.01.2017 13:48 5,4 C 80 % 1004,7 hPa 0,0 l/m 15,8 km/h (3 Bft) N 355 0 min 84 W/m 2,2 C -0,8 C 33,8 km/h (5 Bft) 98,00 %
04.01.2017 13:51 5,4 C 79 % 1004,8 hPa 0,0 l/m 17,7 km/h (3 Bft) N 5 0 min 95 W/m 2,1 C -1,7 C 25,7 km/h (4 Bft) 97,56 %
04.01.2017 13:54 5,4 C 80 % 1004,9 hPa 0,0 l/m 17,3 km/h (3 Bft) N 5 0 min 81 W/m 2,2 C -1,5 C 27,4 km/h (5 Bft) 100,00 %
04.01.2017 13:57 5,3 C 79 % 1005,0 hPa 0,0 l/m 17,2 km/h (3 Bft) N-NW 346 3 min 113 W/m 2,0 C -1,6 C 30,6 km/h (5 Bft) 100,00 %
04.01.2017 14:00 5,3 C 79 % 1005,0 hPa 0,0 l/m 16,7 km/h (3 Bft) NW 312 0 min 90 W/m 2,0 C -1,4 C 35,4 km/h (5 Bft) 100,00 %
04.01.2017 14:03 5,3 C 78 % 1005,0 hPa 0,0 l/m 16,6 km/h (3 Bft) N 360 0 min 97 W/m 1,8 C -1,3 C 30,6 km/h (5 Bft) 100,00 %
04.01.2017 14:06 5,3 C 78 % 1005,0 hPa 0,0 l/m 19,2 km/h (3 Bft) N-NW 331 3 min 134 W/m 1,8 C -2,5 C 37,0 km/h (5 Bft) 100,00 %
04.01.2017 14:09 5,3 C 78 % 1005,2 hPa 0,0 l/m 16,1 km/h (3 Bft) N-NO 22 3 min 102 W/m 1,8 C -1,1 C 29,0 km/h (5 Bft) 100,00 %
04.01.2017 14:12 5,3 C 77 % 1005,3 hPa 0,0 l/m 22,0 km/h (4 Bft) N 355 3 min 123 W/m 1,6 C -3,5 C 40,2 km/h (6 Bft) 98,73 %
04.01.2017 14:15 5,3 C 77 % 1005,4 hPa 0,0 l/m 19,5 km/h (3 Bft) N-NW 346 3 min 111 W/m 1,6 C -2,6 C 40,2 km/h (6 Bft) 98,57 %
04.01.2017 14:18 5,3 C 75 % 1005,4 hPa 0,0 l/m 25,0 km/h (4 Bft) N 5 3 min 127 W/m 1,2 C -4,5 C 35,4 km/h (5 Bft) 100,00 %
04.01.2017 14:21 5,3 C 76 % 1005,7 hPa 0,0 l/m 21,2 km/h (4 Bft) N 350 3 min 123 W/m 1,4 C -3,2 C 30,6 km/h (5 Bft) 100,00 %
04.01.2017 14:24 5,3 C 76 % 1005,7 hPa 0,0 l/m 20,8 km/h (4 Bft) N-NW 332 3 min 130 W/m 1,4 C -3,1 C 45,1 km/h (6 Bft) 100,00 %
04.01.2017 14:27 5,2 C 77 % 1005,7 hPa 0,0 l/m 17,1 km/h (3 Bft) N-NO 22 3 min 97 W/m 1,5 C -1,7 C 33,8 km/h (5 Bft) 96,72 %
04.01.2017 14:30 5,2 C 77 % 1005,8 hPa 0,0 l/m 17,8 km/h (3 Bft) N-NO 26 0 min 32 W/m 1,5 C -2,0 C 30,6 km/h (5 Bft) 98,59 %
04.01.2017 14:33 5,1 C 78 % 1006,0 hPa 0,0 l/m 17,0 km/h (3 Bft) NW 323 0 min 32 W/m 1,6 C -1,8 C 30,6 km/h (5 Bft) 97,06 %
04.01.2017 14:36 5,1 C 78 % 1006,1 hPa 0,0 l/m 16,9 km/h (3 Bft) N 5 0 min 33 W/m 1,6 C -1,7 C 37,0 km/h (5 Bft) 97,14 %
04.01.2017 14:39 5,1 C 79 % 1006,2 hPa 0,0 l/m 15,9 km/h (3 Bft) N 11 0 min 32 W/m 1,8 C -1,3 C 33,8 km/h (5 Bft) 98,75 %
04.01.2017 14:42 5,0 C 78 % 1006,2 hPa 0,0 l/m 18,7 km/h (3 Bft) N 355 0 min 30 W/m 1,5 C -2,6 C 32,2 km/h (5 Bft) 98,51 %
04.01.2017 14:45 4,9 C 78 % 1006,2 hPa 0,2 l/m 15,9 km/h (3 Bft) N-NO 13 0 min 30 W/m 1,4 C -1,5 C 33,8 km/h (5 Bft) 100,00 %
04.01.2017 14:48 4,9 C 78 % 1006,4 hPa 0,0 l/m 15,6 km/h (3 Bft) N 5 0 min 30 W/m 1,4 C -1,3 C 33,8 km/h (5 Bft) 100,00 %
04.01.2017 14:51 4,8 C 78 % 1006,4 hPa 0,0 l/m 16,3 km/h (3 Bft) N 5 0 min 30 W/m 1,3 C -1,8 C 33,8 km/h (5 Bft) 100,00 %
04.01.2017 14:54 4,8 C 79 % 1006,5 hPa 0,0 l/m 11,8 km/h (2 Bft) N-NW 338 0 min 28 W/m 1,5 C 0,7 C 20,9 km/h (4 Bft) 100,00 %
04.01.2017 14:57 4,8 C 79 % 1006,5 hPa 0,0 l/m 14,5 km/h (3 Bft) N-NW 345 0 min 28 W/m 1,5 C -0,9 C 32,2 km/h (5 Bft) 100,00 %
04.01.2017 15:00 4,7 C 79 % 1006,6 hPa 0,0 l/m 13,7 km/h (3 Bft) N-NO 22 0 min 26 W/m 1,4 C -0,6 C 27,4 km/h (5 Bft) 96,61 %
04.01.2017 15:03 4,7 C 80 % 1006,8 hPa 0,0 l/m 12,5 km/h (2 Bft) N-NO 19 0 min 26 W/m 1,6 C 0,1 C 22,5 km/h (4 Bft) 98,73 %
04.01.2017 15:06 4,7 C 80 % 1006,8 hPa 0,0 l/m 14,8 km/h (3 Bft) N-NO 15 0 min 26 W/m 1,6 C -1,2 C 25,7 km/h (4 Bft) 100,00 %
04.01.2017 15:09 4,6 C 81 % 1006,8 hPa 0,0 l/m 11,5 km/h (2 Bft) N-NW 335 0 min 25 W/m 1,6 C 0,6 C 29,0 km/h (5 Bft) 100,00 %
04.01.2017 15:12 4,6 C 81 % 1007,0 hPa 0,0 l/m 15,5 km/h (3 Bft) N 5 0 min 23 W/m 1,6 C -1,7 C 27,4 km/h (5 Bft) 98,63 %
04.01.2017 15:15 4,6 C 81 % 1007,0 hPa 0,0 l/m 11,7 km/h (2 Bft) N 360 0 min 23 W/m 1,6 C 0,5 C 27,4 km/h (5 Bft) 100,00 %
04.01.2017 15:18 4,6 C 81 % 1007,0 hPa 0,0 l/m 11,0 km/h (2 Bft) N-NO 24 0 min 21 W/m 1,6 C 0,9 C 22,5 km/h (4 Bft) 97,26 %
04.01.2017 15:21 4,4 C 82 % 1007,1 hPa 0,0 l/m 10,7 km/h (2 Bft) N-NW 345 0 min 21 W/m 1,6 C 0,9 C 24,1 km/h (4 Bft) 96,77 %
04.01.2017 15:24 4,4 C 81 % 1007,2 hPa 0,0 l/m 9,7 km/h (2 Bft) N-NW 336 0 min 21 W/m 1,4 C 1,6 C 19,3 km/h (3 Bft) 98,63 %
04.01.2017 15:27 4,3 C 82 % 1007,3 hPa 0,0 l/m 10,3 km/h (2 Bft) N-NW 346 0 min 21 W/m 1,5 C 1,1 C 22,5 km/h (4 Bft) 97,40 %
04.01.2017 15:30 4,3 C 82 % 1007,4 hPa 0,0 l/m 11,0 km/h (2 Bft) N 360 0 min 21 W/m 1,5 C 0,6 C 22,5 km/h (4 Bft) 98,57 %
04.01.2017 15:33 4,3 C 82 % 1007,5 hPa 0,0 l/m 13,0 km/h (3 Bft) N-NW 344 0 min 19 W/m 1,5 C -0,7 C 24,1 km/h (4 Bft) 100,00 %
04.01.2017 15:36 4,3 C 82 % 1007,6 hPa 0,0 l/m 14,2 km/h (3 Bft) N-NW 346 0 min 18 W/m 1,5 C -1,3 C 35,4 km/h (5 Bft) 100,00 %
04.01.2017 15:39 4,3 C 81 % 1007,5 hPa 0,0 l/m 11,5 km/h (2 Bft) N 5 0 min 16 W/m 1,3 C 0,3 C 25,7 km/h (4 Bft) 100,00 %
04.01.2017 15:42 4,3 C 81 % 1007,6 hPa 0,0 l/m 12,3 km/h (2 Bft) N-NO 24 0 min 16 W/m 1,3 C -0,2 C 22,5 km/h (4 Bft) 100,00 %
04.01.2017 15:45 4,3 C 80 % 1007,6 hPa 0,0 l/m 12,4 km/h (2 Bft) N 355 0 min 14 W/m 1,2 C -0,3 C 24,1 km/h (4 Bft) 100,00 %
04.01.2017 15:48 4,3 C 80 % 1007,7 hPa 0,0 l/m 12,3 km/h (2 Bft) N-NW 330 0 min 16 W/m 1,2 C -0,2 C 24,1 km/h (4 Bft) 98,65 %
04.01.2017 15:51 4,3 C 81 % 1007,8 hPa 0,0 l/m 13,2 km/h (3 Bft) N 9 0 min 16 W/m 1,3 C -0,8 C 24,1 km/h (4 Bft) 100,00 %
04.01.2017 15:54 4,3 C 81 % 1007,8 hPa 0,0 l/m 16,3 km/h (3 Bft) NW 307 0 min 12 W/m 1,3 C -2,4 C 30,6 km/h (5 Bft) 100,00 %
04.01.2017 15:57 4,3 C 80 % 1008,0 hPa 0,0 l/m 10,8 km/h (2 Bft) N 360 0 min 9 W/m 1,2 C 0,7 C 20,9 km/h (4 Bft) 100,00 %
04.01.2017 16:00 4,2 C 80 % 1008,2 hPa 0,0 l/m 10,3 km/h (2 Bft) N-NO 17 3 min 14 W/m 1,1 C 1,0 C 22,5 km/h (4 Bft) 100,00 %
04.01.2017 16:03 4,2 C 81 % 1008,3 hPa 0,0 l/m 11,2 km/h (2 Bft) N 5 0 min 25 W/m 1,2 C 0,4 C 22,5 km/h (4 Bft) 100,00 %
04.01.2017 16:06 4,2 C 82 % 1008,4 hPa 0,0 l/m 14,4 km/h (3 Bft) N 355 0 min 21 W/m 1,4 C -1,6 C 27,4 km/h (5 Bft) 96,88 %
04.01.2017 16:09 4,3 C 81 % 1008,5 hPa 0,0 l/m 14,0 km/h (3 Bft) N 5 0 min 11 W/m 1,3 C -1,2 C 29,0 km/h (5 Bft) 100,00 %
04.01.2017 16:12 4,3 C 81 % 1008,5 hPa 0,0 l/m 13,7 km/h (3 Bft) N-NO 13 0 min 7 W/m 1,3 C -1,1 C 29,0 km/h (5 Bft) 98,55 %
04.01.2017 16:15 4,3 C 80 % 1008,8 hPa 0,2 l/m 16,4 km/h (3 Bft) N 9 0 min 0 W/m 1,2 C -2,5 C 33,8 km/h (5 Bft) 95,38 %
04.01.2017 16:18 4,4 C 80 % 1008,4 hPa 0,0 l/m 14,2 km/h (3 Bft) N-NW 329 0 min 0 W/m 1,3 C -1,2 C 25,7 km/h (4 Bft) 97,40 %
04.01.2017 16:21 4,4 C 79 % 1008,7 hPa 0,0 l/m 18,3 km/h (3 Bft) NW 325 0 min 0 W/m 1,1 C -3,2 C 38,6 km/h (6 Bft) 98,51 %
04.01.2017 16:24 4,4 C 77 % 1008,6 hPa 0,0 l/m 16,6 km/h (3 Bft) N 360 0 min 0 W/m 0,7 C -2,5 C 35,4 km/h (5 Bft) 96,77 %
04.01.2017 16:27 4,4 C 78 % 1008,7 hPa 0,0 l/m 16,7 km/h (3 Bft) N 5 0 min 0 W/m 0,9 C -2,5 C 30,6 km/h (5 Bft) 98,68 %
04.01.2017 16:30 4,5 C 78 % 1008,7 hPa 0,0 l/m 13,4 km/h (3 Bft) O-NO 77 0 min 0 W/m 1,0 C -0,7 C 22,5 km/h (4 Bft) 100,00 %
04.01.2017 16:33 4,5 C 78 % 1008,8 hPa 0,0 l/m 10,9 km/h (2 Bft) N 11 0 min 0 W/m 1,0 C 0,9 C 29,0 km/h (5 Bft) 100,00 %
04.01.2017 16:36 4,5 C 79 % 1008,7 hPa 0,0 l/m 16,0 km/h (3 Bft) N 5 0 min 0 W/m 1,2 C -2,0 C 33,8 km/h (5 Bft) 100,00 %
04.01.2017 16:39 4,5 C 79 % 1008,8 hPa 0,0 l/m 14,6 km/h (3 Bft) N 5 0 min 0 W/m 1,2 C -1,3 C 29,0 km/h (5 Bft) 100,00 %
04.01.2017 16:42 4,4 C 79 % 1008,9 hPa 0,0 l/m 11,8 km/h (2 Bft) N 360 0 min 0 W/m 1,1 C 0,2 C 22,5 km/h (4 Bft) 100,00 %
04.01.2017 16:45 4,4 C 79 % 1008,9 hPa 0,0 l/m 9,6 km/h (2 Bft) N-NW 346 0 min 0 W/m 1,1 C 1,7 C 22,5 km/h (4 Bft) 100,00 %
04.01.2017 16:48 4,4 C 79 % 1009,0 hPa 0,0 l/m 10,1 km/h (2 Bft) N-NO 17 0 min 0 W/m 1,1 C 1,3 C 25,7 km/h (4 Bft) 100,00 %
04.01.2017 16:51 4,3 C 79 % 1009,1 hPa 0,0 l/m 9,6 km/h (2 Bft) N-NO 31 0 min 0 W/m 1,0 C 1,6 C 19,3 km/h (3 Bft) 98,46 %
04.01.2017 16:54 4,3 C 79 % 1009,1 hPa 0,0 l/m 8,5 km/h (2 Bft) N 10 0 min 0 W/m 1,0 C 2,5 C 20,9 km/h (4 Bft) 100,00 %
04.01.2017 16:57 4,2 C 80 % 1009,1 hPa 0,0 l/m 9,7 km/h (2 Bft) N 5 0 min 0 W/m 1,1 C 1,4 C 20,9 km/h (4 Bft) 100,00 %
04.01.2017 17:00 4,2 C 80 % 1009,2 hPa 0,0 l/m 11,6 km/h (2 Bft) N 9 0 min 0 W/m 1,1 C 0,1 C 25,7 km/h (4 Bft) 98,70 %
04.01.2017 17:03 4,2 C 80 % 1009,3 hPa 0,0 l/m 10,6 km/h (2 Bft) N-NO 23 0 min 0 W/m 1,1 C 0,8 C 20,9 km/h (4 Bft) 100,00 %
04.01.2017 17:06 4,1 C 80 % 1009,4 hPa 0,0 l/m 11,4 km/h (2 Bft) N-NW 345 0 min 0 W/m 1,0 C 0,1 C 17,7 km/h (3 Bft) 100,00 %
04.01.2017 17:09 4,1 C 81 % 1009,4 hPa 0,0 l/m 12,4 km/h (2 Bft) N-NW 346 0 min 0 W/m 1,1 C -0,5 C 25,7 km/h (4 Bft) 95,71 %
04.01.2017 17:12 4,1 C 81 % 1009,4 hPa 0,0 l/m 13,6 km/h (3 Bft) N-NO 17 0 min 0 W/m 1,1 C -1,2 C 32,2 km/h (5 Bft) 95,38 %
04.01.2017 17:15 4,0 C 80 % 1009,4 hPa 0,0 l/m 15,0 km/h (3 Bft) N-NO 15 0 min 0 W/m 0,9 C -2,1 C 25,7 km/h (4 Bft) 95,59 %
04.01.2017 17:18 3,9 C 79 % 1009,4 hPa 0,0 l/m 12,0 km/h (2 Bft) W-NW 286 0 min 0 W/m 0,6 C -0,5 C 20,9 km/h (4 Bft) 96,00 %
04.01.2017 17:21 3,9 C 79 % 1009,4 hPa 0,0 l/m 14,7 km/h (3 Bft) N-NW 340 0 min 0 W/m 0,6 C -2,1 C 27,4 km/h (5 Bft) 94,12 %
04.01.2017 17:24 3,9 C 78 % 1009,5 hPa 0,0 l/m 13,7 km/h (3 Bft) N-NW 336 0 min 0 W/m 0,4 C -1,5 C 27,4 km/h (5 Bft) 97,01 %
04.01.2017 17:27 3,9 C 78 % 1009,6 hPa 0,0 l/m 13,9 km/h (3 Bft) N 355 0 min 0 W/m 0,4 C -1,7 C 33,8 km/h (5 Bft) 97,06 %
04.01.2017 17:30 3,8 C 78 % 1009,7 hPa 0,0 l/m 12,3 km/h (2 Bft) N 9 0 min 0 W/m 0,3 C -0,8 C 22,5 km/h (4 Bft) 97,47 %
04.01.2017 17:33 3,8 C 79 % 1009,8 hPa 0,0 l/m 12,2 km/h (2 Bft) N-NO 13 0 min 0 W/m 0,5 C -0,8 C 24,1 km/h (4 Bft) 97,06 %
04.01.2017 17:36 3,8 C 79 % 1009,8 hPa 0,0 l/m 16,8 km/h (3 Bft) N-NO 32 0 min 0 W/m 0,5 C -3,3 C 32,2 km/h (5 Bft) 97,18 %
04.01.2017 17:39 3,8 C 79 % 1009,9 hPa 0,0 l/m 11,5 km/h (2 Bft) N 355 0 min 0 W/m 0,5 C -0,3 C 20,9 km/h (4 Bft) 98,51 %
04.01.2017 17:42 3,8 C 78 % 1010,2 hPa 0,0 l/m 12,2 km/h (2 Bft) N-NW 336 0 min 0 W/m 0,3 C -0,8 C 29,0 km/h (5 Bft) 96,92 %
04.01.2017 17:45 3,7 C 79 % 1010,2 hPa 0,0 l/m 14,9 km/h (3 Bft) N-NO 26 0 min 0 W/m 0,4 C -2,4 C 27,4 km/h (5 Bft) 96,20 %
04.01.2017 17:48 3,7 C 79 % 1010,3 hPa 0,0 l/m 13,8 km/h (3 Bft) N 5 0 min 0 W/m 0,4 C -1,8 C 24,1 km/h (4 Bft) 98,53 %
04.01.2017 17:51 3,7 C 79 % 1010,4 hPa 0,0 l/m 13,7 km/h (3 Bft) N-NO 20 0 min 0 W/m 0,4 C -1,8 C 29,0 km/h (5 Bft) 97,06 %
04.01.2017 17:54 3,7 C 80 % 1010,6 hPa 0,0 l/m 13,6 km/h (3 Bft) N-NW 344 0 min 0 W/m 0,6 C -1,7 C 27,4 km/h (5 Bft) 97,37 %
04.01.2017 17:57 3,7 C 81 % 1010,7 hPa 0,0 l/m 15,8 km/h (3 Bft) N-NO 13 0 min 0 W/m 0,7 C -2,9 C 32,2 km/h (5 Bft) 97,06 %
04.01.2017 18:00 3,6 C 81 % 1010,8 hPa 0,2 l/m 14,0 km/h (3 Bft) N-NO 29 0 min 0 W/m 0,7 C -2,1 C 24,1 km/h (4 Bft) 97,14 %
04.01.2017 18:03 3,5 C 81 % 1010,9 hPa 0,0 l/m 13,3 km/h (3 Bft) N 351 0 min 0 W/m 0,6 C -1,8 C 33,8 km/h (5 Bft) 100,00 %
04.01.2017 18:06 3,4 C 81 % 1010,8 hPa 0,0 l/m 13,1 km/h (3 Bft) N-NW 340 0 min 0 W/m 0,5 C -1,8 C 27,4 km/h (5 Bft) 97,26 %
04.01.2017 18:09 3,3 C 80 % 1010,9 hPa 0,0 l/m 12,5 km/h (2 Bft) N 5 0 min 0 W/m 0,2 C -1,5 C 22,5 km/h (4 Bft) 97,37 %
04.01.2017 18:12 3,2 C 79 % 1011,0 hPa 0,0 l/m 13,9 km/h (3 Bft) N-NO 18 0 min 0 W/m -0,1 C -2,5 C 24,1 km/h (4 Bft) 95,38 %
04.01.2017 18:15 3,2 C 78 % 1011,0 hPa 0,0 l/m 11,9 km/h (2 Bft) N 5 0 min 0 W/m -0,3 C -1,3 C 27,4 km/h (5 Bft) 95,71 %
04.01.2017 18:18 3,1 C 77 % 1011,1 hPa 0,0 l/m 11,6 km/h (2 Bft) NO 39 0 min 0 W/m -0,5 C -1,2 C 25,7 km/h (4 Bft) 93,24 %
04.01.2017 18:21 3,0 C 76 % 1011,2 hPa 0,0 l/m 12,8 km/h (3 Bft) N 9 0 min 0 W/m -0,8 C -2,1 C 25,7 km/h (4 Bft) 95,31 %
04.01.2017 18:24 2,9 C 75 % 1011,3 hPa 0,0 l/m 14,3 km/h (3 Bft) N 350 0 min 0 W/m -1,1 C -3,1 C 24,1 km/h (4 Bft) 96,25 %
04.01.2017 18:27 2,9 C 73 % 1011,4 hPa 0,0 l/m 14,9 km/h (3 Bft) N 5 0 min 0 W/m -1,5 C -3,4 C 33,8 km/h (5 Bft) 94,83 %
04.01.2017 18:30 2,8 C 71 % 1011,4 hPa 0,0 l/m 13,5 km/h (3 Bft) N-NO 28 0 min 0 W/m -1,9 C -2,7 C 29,0 km/h (5 Bft) 97,14 %
04.01.2017 18:33 2,8 C 71 % 1011,5 hPa 0,0 l/m 13,3 km/h (3 Bft) N-NO 30 0 min 0 W/m -1,9 C -2,6 C 27,4 km/h (5 Bft) 97,40 %
04.01.2017 18:36 2,7 C 70 % 1011,6 hPa 0,0 l/m 13,7 km/h (3 Bft) N-NO 23 0 min 0 W/m -2,2 C -3,0 C 24,1 km/h (4 Bft) 95,52 %
04.01.2017 18:39 2,7 C 70 % 1011,7 hPa 0,0 l/m 12,7 km/h (3 Bft) N 9 0 min 0 W/m -2,2 C -2,3 C 24,1 km/h (4 Bft) 98,63 %
04.01.2017 18:42 2,7 C 70 % 1011,8 hPa 0,0 l/m 12,5 km/h (2 Bft) N-NO 17 0 min 0 W/m -2,2 C -2,2 C 22,5 km/h (4 Bft) 97,01 %
04.01.2017 18:45 2,7 C 69 % 1011,9 hPa 0,0 l/m 15,4 km/h (3 Bft) N-NW 344 0 min 0 W/m -2,4 C -3,9 C 24,1 km/h (4 Bft) 98,63 %
04.01.2017 18:48 2,7 C 68 % 1012,0 hPa 0,0 l/m 17,0 km/h (3 Bft) N 355 0 min 0 W/m -2,6 C -4,8 C 35,4 km/h (5 Bft) 96,77 %
04.01.2017 18:51 2,6 C 68 % 1012,1 hPa 0,0 l/m 13,2 km/h (3 Bft) N 9 0 min 0 W/m -2,7 C -2,8 C 27,4 km/h (5 Bft) 97,26 %
04.01.2017 18:54 2,6 C 68 % 1012,2 hPa 0,0 l/m 13,0 km/h (3 Bft) N-NO 17 0 min 0 W/m -2,7 C -2,7 C 24,1 km/h (4 Bft) 98,75 %
04.01.2017 18:57 2,6 C 68 % 1012,2 hPa 0,0 l/m 16,6 km/h (3 Bft) N-NO 18 0 min 0 W/m -2,7 C -4,7 C 37,0 km/h (5 Bft) 97,14 %
04.01.2017 19:00 2,6 C 68 % 1012,3 hPa 0,0 l/m 9,6 km/h (2 Bft) N-NW 342 0 min 0 W/m -2,7 C -0,3 C 17,7 km/h (3 Bft) 98,53 %
04.01.2017 19:03 2,6 C 69 % 1012,3 hPa 0,0 l/m 10,4 km/h (2 Bft) N-NO 24 0 min 0 W/m -2,5 C -0,9 C 17,7 km/h (3 Bft) 97,01 %
04.01.2017 19:06 2,6 C 69 % 1012,3 hPa 0,0 l/m 12,7 km/h (3 Bft) N-NO 15 0 min 0 W/m -2,5 C -2,5 C 27,4 km/h (5 Bft) 97,30 %
04.01.2017 19:09 2,5 C 68 % 1012,6 hPa 0,0 l/m 16,6 km/h (3 Bft) NW 321 0 min 0 W/m -2,8 C -4,8 C 35,4 km/h (5 Bft) 98,53 %
04.01.2017 19:12 2,5 C 67 % 1012,5 hPa 0,0 l/m 15,0 km/h (3 Bft) N 355 0 min 0 W/m -3,0 C -4,0 C 27,4 km/h (5 Bft) 98,63 %
04.01.2017 19:15 2,5 C 67 % 1012,5 hPa 0,0 l/m 14,7 km/h (3 Bft) N 5 0 min 0 W/m -3,0 C -3,8 C 40,2 km/h (6 Bft) 100,00 %
04.01.2017 19:18 2,5 C 67 % 1012,6 hPa 0,0 l/m 13,6 km/h (3 Bft) N 5 0 min 0 W/m -3,0 C -3,1 C 24,1 km/h (4 Bft) 96,55 %
04.01.2017 19:21 2,5 C 67 % 1012,6 hPa 0,0 l/m 18,0 km/h (3 Bft) N-NW 348 0 min 0 W/m -3,0 C -5,5 C 35,4 km/h (5 Bft) 97,40 %
04.01.2017 19:24 2,5 C 67 % 1012,7 hPa 0,0 l/m 16,0 km/h (3 Bft) N-NO 29 0 min 0 W/m -3,0 C -4,5 C 33,8 km/h (5 Bft) 97,14 %
04.01.2017 19:27 2,5 C 66 % 1012,8 hPa 0,0 l/m 15,4 km/h (3 Bft) N-NO 24 0 min 0 W/m -3,2 C -4,2 C 30,6 km/h (5 Bft) 96,77 %
04.01.2017 19:30 2,4 C 66 % 1012,8 hPa 0,0 l/m 15,5 km/h (3 Bft) N 360 0 min 0 W/m -3,3 C -4,3 C 27,4 km/h (5 Bft) 97,30 %
04.01.2017 19:33 2,5 C 67 % 1012,9 hPa 0,0 l/m 14,5 km/h (3 Bft) N-NO 14 0 min 0 W/m -3,0 C -3,7 C 29,0 km/h (5 Bft) 98,57 %
04.01.2017 19:36 2,4 C 68 % 1013,0 hPa 0,0 l/m 11,9 km/h (2 Bft) N 355 0 min 0 W/m -2,9 C -2,2 C 25,7 km/h (4 Bft) 98,59 %
04.01.2017 19:39 2,5 C 68 % 1013,0 hPa 0,0 l/m 13,6 km/h (3 Bft) NW 315 0 min 0 W/m -2,8 C -3,1 C 25,7 km/h (4 Bft) 98,63 %
04.01.2017 19:42 2,5 C 69 % 1013,1 hPa 0,0 l/m 13,1 km/h (3 Bft) N-NO 23 0 min 0 W/m -2,6 C -2,8 C 33,8 km/h (5 Bft) 100,00 %
04.01.2017 19:45 2,5 C 69 % 1013,1 hPa 0,0 l/m 17,9 km/h (3 Bft) N-NO 20 0 min 0 W/m -2,6 C -5,4 C 35,4 km/h (5 Bft) 100,00 %
04.01.2017 19:48 2,5 C 69 % 1013,2 hPa 0,0 l/m 16,1 km/h (3 Bft) N-NW 345 0 min 0 W/m -2,6 C -4,5 C 43,5 km/h (6 Bft) 100,00 %
04.01.2017 19:51 2,4 C 68 % 1013,2 hPa 0,0 l/m 13,6 km/h (3 Bft) N-NW 343 0 min 0 W/m -2,9 C -3,3 C 27,4 km/h (5 Bft) 100,00 %
04.01.2017 19:54 2,5 C 68 % 1013,2 hPa 0,0 l/m 15,2 km/h (3 Bft) NW 315 0 min 0 W/m -2,8 C -4,1 C 29,0 km/h (5 Bft) 100,00 %
04.01.2017 19:57 2,5 C 68 % 1013,3 hPa 0,0 l/m 13,7 km/h (3 Bft) W-NW 300 0 min 0 W/m -2,8 C -3,2 C 27,4 km/h (5 Bft) 98,39 %
04.01.2017 20:00 2,5 C 66 % 1013,3 hPa 0,0 l/m 14,0 km/h (3 Bft) N-NO 16 0 min 0 W/m -3,2 C -3,4 C 30,6 km/h (5 Bft) 100,00 %
04.01.2017 20:03 2,5 C 66 % 1013,3 hPa 0,0 l/m 12,1 km/h (2 Bft) N 5 0 min 0 W/m -3,2 C -2,2 C 27,4 km/h (5 Bft) 100,00 %
04.01.2017 20:06 2,6 C 66 % 1013,4 hPa 0,0 l/m 15,6 km/h (3 Bft) NW 316 0 min 0 W/m -3,1 C -4,2 C 24,1 km/h (4 Bft) 98,61 %
04.01.2017 20:09 2,6 C 68 % 1013,5 hPa 0,0 l/m 15,1 km/h (3 Bft) N 11 0 min 0 W/m -2,7 C -3,9 C 27,4 km/h (5 Bft) 100,00 %
04.01.2017 20:12 2,6 C 67 % 1013,5 hPa 0,0 l/m 15,7 km/h (3 Bft) N 350 0 min 0 W/m -2,9 C -4,2 C 33,8 km/h (5 Bft) 100,00 %
04.01.2017 20:15 2,6 C 67 % 1013,6 hPa 0,0 l/m 17,6 km/h (3 Bft) N 355 0 min 0 W/m -2,9 C -5,2 C 33,8 km/h (5 Bft) 100,00 %
04.01.2017 20:18 2,6 C 67 % 1013,6 hPa 0,0 l/m 13,0 km/h (3 Bft) N-NW 328 0 min 0 W/m -2,9 C -2,7 C 24,1 km/h (4 Bft) 100,00 %
04.01.2017 20:21 2,6 C 66 % 1013,6 hPa 0,0 l/m 15,2 km/h (3 Bft) N 360 0 min 0 W/m -3,1 C -3,9 C 25,7 km/h (4 Bft) 100,00 %
04.01.2017 20:24 2,6 C 65 % 1013,7 hPa 0,0 l/m 13,8 km/h (3 Bft) N-NO 13 0 min 0 W/m -3,3 C -3,1 C 25,7 km/h (4 Bft) 100,00 %
04.01.2017 20:27 2,6 C 65 % 1013,9 hPa 0,0 l/m 14,6 km/h (3 Bft) N-NW 327 0 min 0 W/m -3,3 C -3,6 C 29,0 km/h (5 Bft) 97,18 %
04.01.2017 20:30 2,6 C 65 % 1013,9 hPa 0,0 l/m 14,8 km/h (3 Bft) N-NW 342 0 min 0 W/m -3,3 C -3,7 C 24,1 km/h (4 Bft) 97,14 %
04.01.2017 20:33 2,6 C 66 % 1013,9 hPa 0,0 l/m 11,0 km/h (2 Bft) N-NW 342 0 min 0 W/m -3,1 C -1,3 C 25,7 km/h (4 Bft) 97,40 %
04.01.2017 20:36 2,6 C 67 % 1014,0 hPa 0,0 l/m 13,4 km/h (3 Bft) N 5 0 min 0 W/m -2,9 C -2,9 C 24,1 km/h (4 Bft) 95,71 %
04.01.2017 20:39 2,6 C 68 % 1014,1 hPa 0,0 l/m 14,6 km/h (3 Bft) N-NO 14 0 min 0 W/m -2,7 C -3,6 C 27,4 km/h (5 Bft) 98,31 %
04.01.2017 20:42 2,6 C 66 % 1014,1 hPa 0,0 l/m 17,3 km/h (3 Bft) N-NO 28 0 min 0 W/m -3,1 C -5,0 C 32,2 km/h (5 Bft) 97,06 %
04.01.2017 20:45 2,6 C 64 % 1014,2 hPa 0,2 l/m 16,4 km/h (3 Bft) N-NW 348 0 min 0 W/m -3,5 C -4,6 C 38,6 km/h (6 Bft) 98,63 %
04.01.2017 20:48 2,6 C 65 % 1014,3 hPa 0,0 l/m 11,0 km/h (2 Bft) N 350 0 min 0 W/m -3,3 C -1,3 C 20,9 km/h (4 Bft) 98,65 %
04.01.2017 20:51 2,6 C 65 % 1014,4 hPa 0,0 l/m 14,8 km/h (3 Bft) N 5 0 min 0 W/m -3,3 C -3,7 C 27,4 km/h (5 Bft) 100,00 %
04.01.2017 20:54 2,5 C 62 % 1014,4 hPa 0,0 l/m 13,7 km/h (3 Bft) N-NO 13 0 min 0 W/m -4,0 C -3,2 C 25,7 km/h (4 Bft) 100,00 %
04.01.2017 20:57 2,5 C 62 % 1014,6 hPa 0,0 l/m 14,0 km/h (3 Bft) N-NO 26 0 min 0 W/m -4,0 C -3,4 C 24,1 km/h (4 Bft) 100,00 %
04.01.2017 21:00 2,4 C 62 % 1014,5 hPa 0,0 l/m 10,2 km/h (2 Bft) N-NW 342 0 min 0 W/m -4,1 C -1,0 C 16,1 km/h (3 Bft) 98,70 %
04.01.2017 21:03 2,4 C 63 % 1014,7 hPa 0,0 l/m 15,9 km/h (3 Bft) N-NO 17 0 min 0 W/m -3,9 C -4,6 C 27,4 km/h (5 Bft) 100,00 %
04.01.2017 21:06 2,4 C 62 % 1014,7 hPa 0,0 l/m 15,6 km/h (3 Bft) N-NO 22 0 min 0 W/m -4,1 C -4,4 C 30,6 km/h (5 Bft) 100,00 %
04.01.2017 21:09 2,4 C 61 % 1014,7 hPa 0,0 l/m 16,6 km/h (3 Bft) N-NO 15 0 min 0 W/m -4,3 C -4,9 C 33,8 km/h (5 Bft) 100,00 %
04.01.2017 21:12 2,4 C 60 % 1014,8 hPa 0,0 l/m 13,7 km/h (3 Bft) N 11 0 min 0 W/m -4,6 C -3,3 C 24,1 km/h (4 Bft) 100,00 %
04.01.2017 21:15 2,3 C 61 % 1014,8 hPa 0,0 l/m 12,1 km/h (2 Bft) N 350 0 min 0 W/m -4,4 C -2,4 C 25,7 km/h (4 Bft) 100,00 %
04.01.2017 21:18 2,3 C 60 % 1014,8 hPa 0,0 l/m 15,9 km/h (3 Bft) N-NO 25 0 min 0 W/m -4,6 C -4,7 C 35,4 km/h (5 Bft) 100,00 %
04.01.2017 21:21 2,3 C 61 % 1015,0 hPa 0,0 l/m 16,5 km/h (3 Bft) N-NW 340 0 min 0 W/m -4,4 C -5,0 C 29,0 km/h (5 Bft) 100,00 %
04.01.2017 21:24 2,2 C 59 % 1014,9 hPa 0,0 l/m 14,0 km/h (3 Bft) N-NO 13 0 min 0 W/m -5,0 C -3,7 C 25,7 km/h (4 Bft) 100,00 %
04.01.2017 21:27 2,2 C 62 % 1015,0 hPa 0,0 l/m 12,6 km/h (3 Bft) N 350 0 min 0 W/m -4,3 C -2,9 C 29,0 km/h (5 Bft) 100,00 %
04.01.2017 21:30 2,2 C 62 % 1014,9 hPa 0,0 l/m 13,4 km/h (3 Bft) N-NW 343 0 min 0 W/m -4,3 C -3,4 C 27,4 km/h (5 Bft) 100,00 %
04.01.2017 21:33 2,2 C 62 % 1015,0 hPa 0,0 l/m 13,3 km/h (3 Bft) N-NO 16 0 min 0 W/m -4,3 C -3,3 C 24,1 km/h (4 Bft) 98,57 %
04.01.2017 21:36 2,1 C 62 % 1015,1 hPa 0,0 l/m 15,0 km/h (3 Bft) N 5 0 min 0 W/m -4,4 C -4,4 C 32,2 km/h (5 Bft) 98,59 %
04.01.2017 21:39 2,1 C 62 % 1015,2 hPa 0,0 l/m 12,8 km/h (3 Bft) N-NO 19 0 min 0 W/m -4,4 C -3,1 C 20,9 km/h (4 Bft) 97,37 %
04.01.2017 21:42 2,1 C 63 % 1015,3 hPa 0,0 l/m 16,3 km/h (3 Bft) N-NO 22 0 min 0 W/m -4,2 C -5,1 C 29,0 km/h (5 Bft) 95,89 %
04.01.2017 21:45 2,1 C 62 % 1015,3 hPa 0,0 l/m 14,2 km/h (3 Bft) N 9 0 min 0 W/m -4,4 C -4,0 C 25,7 km/h (4 Bft) 96,77 %
04.01.2017 21:48 2,0 C 62 % 1015,4 hPa 0,0 l/m 13,8 km/h (3 Bft) N-NO 32 0 min 0 W/m -4,5 C -3,9 C 32,2 km/h (5 Bft) 97,14 %
04.01.2017 21:51 2,0 C 64 % 1015,5 hPa 0,0 l/m 10,8 km/h (2 Bft) N-NO 17 0 min 0 W/m -4,1 C -1,8 C 22,5 km/h (4 Bft) 98,70 %
04.01.2017 21:54 2,0 C 65 % 1015,5 hPa 0,0 l/m 10,9 km/h (2 Bft) N-NO 16 0 min 0 W/m -3,9 C -1,9 C 22,5 km/h (4 Bft) 95,08 %
04.01.2017 21:57 1,9 C 65 % 1015,6 hPa 0,0 l/m 14,7 km/h (3 Bft) N-NO 26 0 min 0 W/m -4,0 C -4,5 C 29,0 km/h (5 Bft) 98,53 %
04.01.2017 22:00 1,9 C 64 % 1015,7 hPa 0,0 l/m 12,8 km/h (3 Bft) N-NO 32 0 min 0 W/m -4,2 C -3,3 C 20,9 km/h (4 Bft) 100,00 %
04.01.2017 22:03 1,8 C 64 % 1015,7 hPa 0,0 l/m 16,0 km/h (3 Bft) N 360 0 min 0 W/m -4,3 C -5,4 C 27,4 km/h (5 Bft) 98,53 %
04.01.2017 22:06 1,8 C 62 % 1015,7 hPa 0,0 l/m 11,3 km/h (2 Bft) N-NO 27 0 min 0 W/m -4,7 C -2,4 C 22,5 km/h (4 Bft) 100,00 %
04.01.2017 22:09 1,8 C 64 % 1015,8 hPa 0,0 l/m 11,6 km/h (2 Bft) N 350 0 min 0 W/m -4,3 C -2,7 C 22,5 km/h (4 Bft) 100,00 %
04.01.2017 22:12 1,8 C 63 % 1015,8 hPa 0,0 l/m 13,6 km/h (3 Bft) N-NO 28 0 min 0 W/m -4,5 C -4,0 C 27,4 km/h (5 Bft) 98,46 %
04.01.2017 22:15 1,8 C 63 % 1015,9 hPa 0,0 l/m 15,0 km/h (3 Bft) N-NW 330 0 min 0 W/m -4,5 C -4,8 C 25,7 km/h (4 Bft) 98,68 %
04.01.2017 22:18 1,7 C 62 % 1015,9 hPa 0,0 l/m 14,7 km/h (3 Bft) N-NO 32 0 min 0 W/m -4,8 C -4,7 C 37,0 km/h (5 Bft) 100,00 %
04.01.2017 22:21 1,7 C 60 % 1015,9 hPa 0,0 l/m 17,3 km/h (3 Bft) N-NO 22 0 min 0 W/m -5,2 C -6,2 C 30,6 km/h (5 Bft) 98,68 %
04.01.2017 22:24 1,7 C 62 % 1016,0 hPa 0,0 l/m 13,1 km/h (3 Bft) N 5 0 min 0 W/m -4,8 C -3,8 C 27,4 km/h (5 Bft) 100,00 %
04.01.2017 22:27 1,7 C 63 % 1016,1 hPa 0,0 l/m 12,0 km/h (2 Bft) N 5 0 min 0 W/m -4,6 C -3,0 C 20,9 km/h (4 Bft) 98,53 %
04.01.2017 22:30 1,6 C 64 % 1016,2 hPa 0,0 l/m 14,5 km/h (3 Bft) NO 37 0 min 0 W/m -4,5 C -4,8 C 27,4 km/h (5 Bft) 100,00 %
04.01.2017 22:33 1,6 C 63 % 1016,2 hPa 0,0 l/m 14,0 km/h (3 Bft) N 355 0 min 0 W/m -4,7 C -4,5 C 29,0 km/h (5 Bft) 98,46 %
04.01.2017 22:36 1,6 C 64 % 1016,2 hPa 0,0 l/m 15,3 km/h (3 Bft) N 355 0 min 0 W/m -4,5 C -5,2 C 32,2 km/h (5 Bft) 100,00 %
04.01.2017 22:39 1,5 C 64 % 1016,2 hPa 0,0 l/m 13,5 km/h (3 Bft) NW 324 0 min 0 W/m -4,6 C -4,3 C 27,4 km/h (5 Bft) 97,18 %
04.01.2017 22:42 1,5 C 63 % 1016,3 hPa 0,0 l/m 15,6 km/h (3 Bft) N 9 0 min 0 W/m -4,8 C -5,5 C 32,2 km/h (5 Bft) 100,00 %
04.01.2017 22:45 1,4 C 64 % 1016,4 hPa 0,0 l/m 14,4 km/h (3 Bft) N-NW 333 0 min 0 W/m -4,6 C -4,9 C 25,7 km/h (4 Bft) 100,00 %
04.01.2017 22:48 1,4 C 64 % 1016,3 hPa 0,0 l/m 15,3 km/h (3 Bft) NO 44 0 min 0 W/m -4,6 C -5,5 C 32,2 km/h (5 Bft) 100,00 %
04.01.2017 22:51 1,4 C 65 % 1016,6 hPa 0,0 l/m 13,5 km/h (3 Bft) N 350 0 min 0 W/m -4,4 C -4,4 C 24,1 km/h (4 Bft) 100,00 %
04.01.2017 22:54 1,4 C 66 % 1016,6 hPa 0,0 l/m 11,6 km/h (2 Bft) N-NO 23 0 min 0 W/m -4,2 C -3,1 C 29,0 km/h (5 Bft) 97,59 %
04.01.2017 22:57 1,4 C 67 % 1016,6 hPa 0,0 l/m 11,9 km/h (2 Bft) N 9 0 min 0 W/m -4,0 C -3,3 C 24,1 km/h (4 Bft) 98,51 %
04.01.2017 23:00 1,3 C 67 % 1016,7 hPa 0,0 l/m 9,4 km/h (2 Bft) N-NO 24 0 min 0 W/m -4,1 C -1,5 C 19,3 km/h (3 Bft) 97,18 %
04.01.2017 23:03 1,3 C 68 % 1016,7 hPa 0,0 l/m 13,7 km/h (3 Bft) N-NO 17 0 min 0 W/m -3,9 C -4,6 C 29,0 km/h (5 Bft) 98,53 %
04.01.2017 23:06 1,2 C 68 % 1016,8 hPa 0,0 l/m 14,2 km/h (3 Bft) N-NW 336 0 min 0 W/m -4,0 C -5,1 C 25,7 km/h (4 Bft) 97,47 %
04.01.2017 23:09 1,2 C 68 % 1016,8 hPa 0,0 l/m 11,8 km/h (2 Bft) N-NO 13 0 min 0 W/m -4,0 C -3,5 C 24,1 km/h (4 Bft) 96,61 %
04.01.2017 23:12 1,2 C 68 % 1016,8 hPa 0,0 l/m 10,9 km/h (2 Bft) NW 318 0 min 0 W/m -4,0 C -2,8 C 27,4 km/h (5 Bft) 98,57 %
04.01.2017 23:15 1,1 C 69 % 1016,9 hPa 0,0 l/m 13,4 km/h (3 Bft) N-NW 335 0 min 0 W/m -3,9 C -4,7 C 27,4 km/h (5 Bft) 97,30 %
04.01.2017 23:18 1,1 C 69 % 1017,0 hPa 0,2 l/m 12,1 km/h (2 Bft) N 355 0 min 0 W/m -3,9 C -3,8 C 22,5 km/h (4 Bft) 100,00 %
04.01.2017 23:21 1,1 C 70 % 1017,1 hPa 0,0 l/m 11,2 km/h (2 Bft) N-NW 342 0 min 0 W/m -3,7 C -3,2 C 20,9 km/h (4 Bft) 100,00 %
04.01.2017 23:24 1,0 C 70 % 1017,0 hPa 0,0 l/m 13,5 km/h (3 Bft) W-NW 286 0 min 0 W/m -3,8 C -4,9 C 30,6 km/h (5 Bft) 100,00 %
04.01.2017 23:27 1,0 C 71 % 1017,2 hPa 0,0 l/m 11,2 km/h (2 Bft) N-NO 14 0 min 0 W/m -3,7 C -3,3 C 22,5 km/h (4 Bft) 100,00 %
04.01.2017 23:30 1,0 C 71 % 1017,2 hPa 0,0 l/m 12,6 km/h (3 Bft) N-NO 28 0 min 0 W/m -3,7 C -4,3 C 30,6 km/h (5 Bft) 100,00 %
04.01.2017 23:33 0,9 C 71 % 1017,2 hPa 0,0 l/m 11,3 km/h (2 Bft) N 10 0 min 0 W/m -3,7 C -3,5 C 22,5 km/h (4 Bft) 100,00 %
04.01.2017 23:36 0,9 C 71 % 1017,3 hPa 0,0 l/m 11,3 km/h (2 Bft) N-NO 15 0 min 0 W/m -3,7 C -3,5 C 20,9 km/h (4 Bft) 98,70 %
04.01.2017 23:39 0,9 C 72 % 1017,4 hPa 0,0 l/m 11,2 km/h (2 Bft) N 5 0 min 0 W/m -3,6 C -3,4 C 20,9 km/h (4 Bft) 100,00 %
04.01.2017 23:42 0,9 C 72 % 1017,4 hPa 0,0 l/m 12,0 km/h (2 Bft) N 5 0 min 0 W/m -3,6 C -4,0 C 19,3 km/h (3 Bft) 98,36 %
04.01.2017 23:45 0,9 C 73 % 1017,4 hPa 0,0 l/m 14,4 km/h (3 Bft) N-NO 17 0 min 0 W/m -3,4 C -5,5 C 30,6 km/h (5 Bft) 98,67 %
04.01.2017 23:48 0,8 C 73 % 1017,5 hPa 0,0 l/m 11,3 km/h (2 Bft) O-NO 62 0 min 0 W/m -3,5 C -3,6 C 20,9 km/h (4 Bft) 98,57 %
04.01.2017 23:51 0,8 C 73 % 1017,5 hPa 0,0 l/m 10,4 km/h (2 Bft) N-NO 13 0 min 0 W/m -3,5 C -2,9 C 24,1 km/h (4 Bft) 100,00 %
04.01.2017 23:54 0,8 C 74 % 1017,5 hPa 0,0 l/m 10,6 km/h (2 Bft) N-NO 14 0 min 0 W/m -3,3 C -3,0 C 25,7 km/h (4 Bft) 98,57 %
04.01.2017 23:57 0,8 C 74 % 1017,7 hPa 0,0 l/m 10,4 km/h (2 Bft) N-NW 337 0 min 0 W/m -3,3 C -2,9 C 25,7 km/h (4 Bft) 100,00 %
_ Min-Zeit 23:48 21:24 07:57 - 16:54 - - - - 22:21 06:30 21:00 07:51
Minimum _ 0,8 C 59 % 1000,8 hPa - 8,5 km/h (2 Bft) - - - - -5,2 C -8,1 C 16,1 km/h (3 Bft) 92,86 %
_ Max-Zeit 00:00 00:30 23:57 00:21 06:30 - - 10:09 13:24 00:00 16:54 06:30 00:00
Maximum _ 7,3 C 93 % 1017,7 hPa 0,2 l/m 40,4 km/h
N-NW (6 Bft)
- - 3 min 185 W/m 5,9 C 2,5 C 66,0 km/h
N-NW (8 Bft)
100,00 %
Durchschnitt _ 4,6 C 79 % 1006,2 hPa #4,4 l/m 18,0 km/h (3 Bft) N-NW - #45 min. 47 W/m 1,3 C -2,5 C 33,9 km/h (5 Bft) 98,38 %
2017 Cux-Wetter.de -Die Nutzung der Wetterdaten nur mit ausdrcklicher Genehmigung